<?xml version="1.0" encoding="UTF-8" standalone="no" ?>
<gpx xmlns="http://www.topografix.com/GPX/1/1" xmlns:xsi="http://www.w3.org/2001/XMLSchema-instance" xsi:schemaLocation="http://www.topografix.com/GPX/1/1 http://www.topografix.com/GPX/1/1/gpx.xsd" version="1.1" creator="VisuGPX - https://www.visugpx.com">
  <metadata>
    <name>col de la seigne</name>
    <desc><![CDATA[la ville des glacier col de la seigne]]></desc>
  </metadata>
  <trk>
    <name><![CDATA[Move]]></name>
    <trkseg>
      <trkpt lat="45.72797" lon="6.76764">
        <ele>1804.70200064</ele>
        <time>2013-09-01T05:38:44.130Z</time>
      </trkpt>
      <trkpt lat="45.72794" lon="6.76761">
        <ele>1804.26200064</ele>
        <time>2013-09-01T05:38:46.330Z</time>
      </trkpt>
      <trkpt lat="45.72787" lon="6.76756">
        <ele>1803.06200064</ele>
        <time>2013-09-01T05:38:52.330Z</time>
      </trkpt>
      <trkpt lat="45.72779" lon="6.76747">
        <ele>1802.26599936</ele>
        <time>2013-09-01T05:38:56.310Z</time>
      </trkpt>
      <trkpt lat="45.72773" lon="6.76737">
        <ele>1801.46599936</ele>
        <time>2013-09-01T05:39:00.310Z</time>
      </trkpt>
      <trkpt lat="45.72765" lon="6.7673">
        <ele>1801</ele>
        <time>2013-09-01T05:39:04.330Z</time>
      </trkpt>
      <trkpt lat="45.72754" lon="6.76731">
        <ele>1801</ele>
        <time>2013-09-01T05:39:09.330Z</time>
      </trkpt>
      <trkpt lat="45.72747" lon="6.76742">
        <ele>1801.16200064</ele>
        <time>2013-09-01T05:39:14.270Z</time>
      </trkpt>
      <trkpt lat="45.72747" lon="6.76756">
        <ele>1800.664</ele>
        <time>2013-09-01T05:39:29.330Z</time>
      </trkpt>
      <trkpt lat="45.72749" lon="6.76771">
        <ele>1797.996</ele>
        <time>2013-09-01T05:39:39.330Z</time>
      </trkpt>
      <trkpt lat="45.72747" lon="6.76787">
        <ele>1795.796203731</ele>
        <time>2013-09-01T05:40:03.320Z</time>
      </trkpt>
      <trkpt lat="45.72743" lon="6.76801">
        <ele>1794.3126858143</ele>
        <time>2013-09-01T05:40:08.270Z</time>
      </trkpt>
      <trkpt lat="45.72739" lon="6.76817">
        <ele>1792.8638639075</ele>
        <time>2013-09-01T05:40:13.330Z</time>
      </trkpt>
      <trkpt lat="45.72735" lon="6.76828">
        <ele>1792.0630633632</ele>
        <time>2013-09-01T05:40:17.330Z</time>
      </trkpt>
      <trkpt lat="45.72733" lon="6.76839">
        <ele>1790.63699968</ele>
        <time>2013-09-01T05:40:26.270Z</time>
      </trkpt>
      <trkpt lat="45.7273" lon="6.76851">
        <ele>1789.6976290909</ele>
        <time>2013-09-01T05:40:34.170Z</time>
      </trkpt>
      <trkpt lat="45.72728" lon="6.76869">
        <ele>1788.7094867984</ele>
        <time>2013-09-01T05:40:39.170Z</time>
      </trkpt>
      <trkpt lat="45.72728" lon="6.76884">
        <ele>1787.8765188664</ele>
        <time>2013-09-01T05:40:43.370Z</time>
      </trkpt>
      <trkpt lat="45.72731" lon="6.769">
        <ele>1786.9048589474</ele>
        <time>2013-09-01T05:40:48.170Z</time>
      </trkpt>
      <trkpt lat="45.72741" lon="6.76906">
        <ele>1786</ele>
        <time>2013-09-01T05:40:54.170Z</time>
      </trkpt>
      <trkpt lat="45.72751" lon="6.76911">
        <ele>1786</ele>
        <time>2013-09-01T05:40:59.170Z</time>
      </trkpt>
      <trkpt lat="45.7276" lon="6.76921">
        <ele>1786.71800064</ele>
        <time>2013-09-01T05:41:36.230Z</time>
      </trkpt>
      <trkpt lat="45.7277" lon="6.76929">
        <ele>1787.91800064</ele>
        <time>2013-09-01T05:41:42.230Z</time>
      </trkpt>
      <trkpt lat="45.72779" lon="6.7694">
        <ele>1789.11800064</ele>
        <time>2013-09-01T05:41:48.230Z</time>
      </trkpt>
      <trkpt lat="45.72787" lon="6.76949">
        <ele>1790.1049499279</ele>
        <time>2013-09-01T05:41:53.170Z</time>
      </trkpt>
      <trkpt lat="45.72794" lon="6.7696">
        <ele>1791.2930694926</ele>
        <time>2013-09-01T05:41:59.170Z</time>
      </trkpt>
      <trkpt lat="45.72802" lon="6.7696">
        <ele>1792.362260549</ele>
        <time>2013-09-01T05:42:06.330Z</time>
      </trkpt>
      <trkpt lat="45.72811" lon="6.76959">
        <ele>1792.9677093949</ele>
        <time>2013-09-01T05:42:12.330Z</time>
      </trkpt>
      <trkpt lat="45.72822" lon="6.76959">
        <ele>1794.337336909</ele>
        <time>2013-09-01T05:42:19.330Z</time>
      </trkpt>
      <trkpt lat="45.72832" lon="6.76964">
        <ele>1795.5374620699</ele>
        <time>2013-09-01T05:42:25.330Z</time>
      </trkpt>
      <trkpt lat="45.72841" lon="6.76973">
        <ele>1796.916085168</ele>
        <time>2013-09-01T05:42:32.230Z</time>
      </trkpt>
      <trkpt lat="45.72851" lon="6.76976">
        <ele>1799.6346363533</ele>
        <time>2013-09-01T05:42:39.230Z</time>
      </trkpt>
      <trkpt lat="45.72862" lon="6.76978">
        <ele>1801.52</ele>
        <time>2013-09-01T05:42:45.240Z</time>
      </trkpt>
      <trkpt lat="45.72872" lon="6.76983">
        <ele>1802.70599936</ele>
        <time>2013-09-01T05:42:51.170Z</time>
      </trkpt>
      <trkpt lat="45.72881" lon="6.76993">
        <ele>1803.45299968</ele>
        <time>2013-09-01T05:42:57.170Z</time>
      </trkpt>
      <trkpt lat="45.7289" lon="6.77003">
        <ele>1804.12600064</ele>
        <time>2013-09-01T05:43:03.270Z</time>
      </trkpt>
      <trkpt lat="45.72897" lon="6.77016">
        <ele>1805.32600064</ele>
        <time>2013-09-01T05:43:09.270Z</time>
      </trkpt>
      <trkpt lat="45.72904" lon="6.77028">
        <ele>1806.53799936</ele>
        <time>2013-09-01T05:43:15.330Z</time>
      </trkpt>
      <trkpt lat="45.72911" lon="6.77039">
        <ele>1807.73799936</ele>
        <time>2013-09-01T05:43:21.330Z</time>
      </trkpt>
      <trkpt lat="45.72918" lon="6.7705">
        <ele>1808.3550941705</ele>
        <time>2013-09-01T05:43:26.230Z</time>
      </trkpt>
      <trkpt lat="45.72925" lon="6.7706">
        <ele>1808.8496538557</ele>
        <time>2013-09-01T05:43:31.230Z</time>
      </trkpt>
      <trkpt lat="45.72934" lon="6.77069">
        <ele>1809.8929285772</ele>
        <time>2013-09-01T05:43:37.170Z</time>
      </trkpt>
      <trkpt lat="45.72944" lon="6.77076">
        <ele>1811.154456615</ele>
        <time>2013-09-01T05:43:43.430Z</time>
      </trkpt>
      <trkpt lat="45.72953" lon="6.77083">
        <ele>1812.1049510622</ele>
        <time>2013-09-01T05:43:48.230Z</time>
      </trkpt>
      <trkpt lat="45.72961" lon="6.77091">
        <ele>1813.1172889358</ele>
        <time>2013-09-01T05:43:53.330Z</time>
      </trkpt>
      <trkpt lat="45.72968" lon="6.77099">
        <ele>1814.3306361434</ele>
        <time>2013-09-01T05:43:59.330Z</time>
      </trkpt>
      <trkpt lat="45.72975" lon="6.7711">
        <ele>1815.3256750692</ele>
        <time>2013-09-01T05:44:04.270Z</time>
      </trkpt>
      <trkpt lat="45.72981" lon="6.77122">
        <ele>1816.3246763875</ele>
        <time>2013-09-01T05:44:09.270Z</time>
      </trkpt>
      <trkpt lat="45.72989" lon="6.77128">
        <ele>1817.1681681143</ele>
        <time>2013-09-01T05:44:14.330Z</time>
      </trkpt>
      <trkpt lat="45.72999" lon="6.77138">
        <ele>1817.7687685225</ele>
        <time>2013-09-01T05:44:20.330Z</time>
      </trkpt>
      <trkpt lat="45.73005" lon="6.77152">
        <ele>1818.36899968</ele>
        <time>2013-09-01T05:44:26.330Z</time>
      </trkpt>
      <trkpt lat="45.73006" lon="6.77162">
        <ele>1819.3686311668</ele>
        <time>2013-09-01T05:45:06.330Z</time>
      </trkpt>
      <trkpt lat="45.73005" lon="6.77171">
        <ele>1820.0620626828</ele>
        <time>2013-09-01T05:45:13.270Z</time>
      </trkpt>
      <trkpt lat="45.73004" lon="6.77187">
        <ele>1820.9629632952</ele>
        <time>2013-09-01T05:45:22.270Z</time>
      </trkpt>
      <trkpt lat="45.73004" lon="6.77202">
        <ele>1822.1368628609</ele>
        <time>2013-09-01T05:45:28.330Z</time>
      </trkpt>
      <trkpt lat="45.73005" lon="6.77218">
        <ele>1823.32400128</ele>
        <time>2013-09-01T05:45:34.270Z</time>
      </trkpt>
      <trkpt lat="45.73003" lon="6.77233">
        <ele>1824.52400128</ele>
        <time>2013-09-01T05:45:40.270Z</time>
      </trkpt>
      <trkpt lat="45.73006" lon="6.77247">
        <ele>1825</ele>
        <time>2013-09-01T05:46:12.270Z</time>
      </trkpt>
      <trkpt lat="45.73012" lon="6.77262">
        <ele>1826.1314741036</ele>
        <time>2013-09-01T05:46:18.330Z</time>
      </trkpt>
      <trkpt lat="45.7302" lon="6.77272">
        <ele>1827.2088353414</ele>
        <time>2013-09-01T05:46:23.210Z</time>
      </trkpt>
      <trkpt lat="45.73025" lon="6.77286">
        <ele>1829.6184738956</ele>
        <time>2013-09-01T05:46:29.210Z</time>
      </trkpt>
      <trkpt lat="45.73032" lon="6.77297">
        <ele>1831.53200128</ele>
        <time>2013-09-01T05:46:35.310Z</time>
      </trkpt>
      <trkpt lat="45.73042" lon="6.77307">
        <ele>1832.73200128</ele>
        <time>2013-09-01T05:46:41.310Z</time>
      </trkpt>
      <trkpt lat="45.73049" lon="6.77317">
        <ele>1833.3623628869</ele>
        <time>2013-09-01T05:46:46.270Z</time>
      </trkpt>
      <trkpt lat="45.73057" lon="6.77329">
        <ele>1833.9629632952</ele>
        <time>2013-09-01T05:46:52.270Z</time>
      </trkpt>
      <trkpt lat="45.73067" lon="6.77336">
        <ele>1835.1368628609</ele>
        <time>2013-09-01T05:46:58.330Z</time>
      </trkpt>
      <trkpt lat="45.73076" lon="6.77343">
        <ele>1836.1241253656</ele>
        <time>2013-09-01T05:47:03.270Z</time>
      </trkpt>
      <trkpt lat="45.73084" lon="6.77351">
        <ele>1838.0549453922</ele>
        <time>2013-09-01T05:47:13.190Z</time>
      </trkpt>
      <trkpt lat="45.73091" lon="6.77364">
        <ele>1838.6543461832</ele>
        <time>2013-09-01T05:47:19.190Z</time>
      </trkpt>
      <trkpt lat="45.73097" lon="6.77376">
        <ele>1839.336</ele>
        <time>2013-09-01T05:47:24.330Z</time>
      </trkpt>
      <trkpt lat="45.73105" lon="6.77386">
        <ele>1840.536</ele>
        <time>2013-09-01T05:47:30.330Z</time>
      </trkpt>
      <trkpt lat="45.73112" lon="6.77398">
        <ele>1841.52400128</ele>
        <time>2013-09-01T05:47:35.270Z</time>
      </trkpt>
      <trkpt lat="45.73119" lon="6.77409">
        <ele>1842.52400128</ele>
        <time>2013-09-01T05:47:40.270Z</time>
      </trkpt>
      <trkpt lat="45.73126" lon="6.7742">
        <ele>1843.5245256378</ele>
        <time>2013-09-01T05:47:45.270Z</time>
      </trkpt>
      <trkpt lat="45.73132" lon="6.77431">
        <ele>1844.5255263182</ele>
        <time>2013-09-01T05:47:50.270Z</time>
      </trkpt>
      <trkpt lat="45.73137" lon="6.7744">
        <ele>1845.33799936</ele>
        <time>2013-09-01T05:47:54.330Z</time>
      </trkpt>
      <trkpt lat="45.73142" lon="6.77453">
        <ele>1846.33799936</ele>
        <time>2013-09-01T05:47:59.330Z</time>
      </trkpt>
      <trkpt lat="45.73148" lon="6.77462">
        <ele>1847.13799936</ele>
        <time>2013-09-01T05:48:03.330Z</time>
      </trkpt>
      <trkpt lat="45.73156" lon="6.77469">
        <ele>1848.13799936</ele>
        <time>2013-09-01T05:48:08.330Z</time>
      </trkpt>
      <trkpt lat="45.73166" lon="6.77474">
        <ele>1849.13799936</ele>
        <time>2013-09-01T05:48:13.330Z</time>
      </trkpt>
      <trkpt lat="45.73174" lon="6.77477">
        <ele>1849.93799936</ele>
        <time>2013-09-01T05:48:17.330Z</time>
      </trkpt>
      <trkpt lat="45.73185" lon="6.77482">
        <ele>1851.1138855109</ele>
        <time>2013-09-01T05:48:23.210Z</time>
      </trkpt>
      <trkpt lat="45.73195" lon="6.77489">
        <ele>1852.312687093</ele>
        <time>2013-09-01T05:48:29.210Z</time>
      </trkpt>
      <trkpt lat="45.73205" lon="6.77496">
        <ele>1853.5245256378</ele>
        <time>2013-09-01T05:48:35.270Z</time>
      </trkpt>
      <trkpt lat="45.73215" lon="6.77502">
        <ele>1854.5255263182</ele>
        <time>2013-09-01T05:48:40.270Z</time>
      </trkpt>
      <trkpt lat="45.73222" lon="6.7751">
        <ele>1855.52600064</ele>
        <time>2013-09-01T05:48:45.270Z</time>
      </trkpt>
      <trkpt lat="45.73229" lon="6.77521">
        <ele>1856.72600064</ele>
        <time>2013-09-01T05:48:51.270Z</time>
      </trkpt>
      <trkpt lat="45.73235" lon="6.77531">
        <ele>1857.7372623336</ele>
        <time>2013-09-01T05:48:56.330Z</time>
      </trkpt>
      <trkpt lat="45.73241" lon="6.77541">
        <ele>1858.7362636519</ele>
        <time>2013-09-01T05:49:01.330Z</time>
      </trkpt>
      <trkpt lat="45.73248" lon="6.77551">
        <ele>1859.7330677291</ele>
        <time>2013-09-01T05:49:06.330Z</time>
      </trkpt>
      <trkpt lat="45.73254" lon="6.77563">
        <ele>1860.7290836653</ele>
        <time>2013-09-01T05:49:11.330Z</time>
      </trkpt>
      <trkpt lat="45.73261" lon="6.77575">
        <ele>1861.7188767872</ele>
        <time>2013-09-01T05:49:16.270Z</time>
      </trkpt>
      <trkpt lat="45.73265" lon="6.77588">
        <ele>1862.7228928514</ele>
        <time>2013-09-01T05:49:21.270Z</time>
      </trkpt>
      <trkpt lat="45.73268" lon="6.77603">
        <ele>1863.368</ele>
        <time>2013-09-01T05:49:26.330Z</time>
      </trkpt>
      <trkpt lat="45.73275" lon="6.77614">
        <ele>1863.868</ele>
        <time>2013-09-01T05:49:31.330Z</time>
      </trkpt>
      <trkpt lat="45.73283" lon="6.77622">
        <ele>1864.72400128</ele>
        <time>2013-09-01T05:49:36.270Z</time>
      </trkpt>
      <trkpt lat="45.7329" lon="6.77633">
        <ele>1865.72400128</ele>
        <time>2013-09-01T05:49:41.270Z</time>
      </trkpt>
      <trkpt lat="45.73296" lon="6.77642">
        <ele>1866.5365363647</ele>
        <time>2013-09-01T05:49:45.330Z</time>
      </trkpt>
      <trkpt lat="45.73302" lon="6.77651">
        <ele>1867.337336909</ele>
        <time>2013-09-01T05:49:49.330Z</time>
      </trkpt>
      <trkpt lat="45.7331" lon="6.77662">
        <ele>1868</ele>
        <time>2013-09-01T05:49:54.330Z</time>
      </trkpt>
      <trkpt lat="45.73317" lon="6.77669">
        <ele>1868</ele>
        <time>2013-09-01T05:49:58.330Z</time>
      </trkpt>
      <trkpt lat="45.73326" lon="6.77678">
        <ele>1868</ele>
        <time>2013-09-01T05:50:03.260Z</time>
      </trkpt>
      <trkpt lat="45.73334" lon="6.77689">
        <ele>1868</ele>
        <time>2013-09-01T05:50:08.260Z</time>
      </trkpt>
      <trkpt lat="45.73341" lon="6.77701">
        <ele>1868.068</ele>
        <time>2013-09-01T05:50:13.330Z</time>
      </trkpt>
      <trkpt lat="45.73349" lon="6.77712">
        <ele>1868.568</ele>
        <time>2013-09-01T05:50:18.330Z</time>
      </trkpt>
      <trkpt lat="45.73358" lon="6.77718">
        <ele>1869.12400128</ele>
        <time>2013-09-01T05:50:23.270Z</time>
      </trkpt>
      <trkpt lat="45.73368" lon="6.77722">
        <ele>1870.12400128</ele>
        <time>2013-09-01T05:50:28.270Z</time>
      </trkpt>
      <trkpt lat="45.73379" lon="6.77723">
        <ele>1871.136</ele>
        <time>2013-09-01T05:50:33.330Z</time>
      </trkpt>
      <trkpt lat="45.73389" lon="6.77727">
        <ele>1872.136</ele>
        <time>2013-09-01T05:50:38.330Z</time>
      </trkpt>
      <trkpt lat="45.734" lon="6.77734">
        <ele>1873.0620626828</ele>
        <time>2013-09-01T05:50:43.270Z</time>
      </trkpt>
      <trkpt lat="45.7341" lon="6.7774">
        <ele>1873.562563023</ele>
        <time>2013-09-01T05:50:48.270Z</time>
      </trkpt>
      <trkpt lat="45.73417" lon="6.77745">
        <ele>1873.9629632952</ele>
        <time>2013-09-01T05:50:52.270Z</time>
      </trkpt>
      <trkpt lat="45.73426" lon="6.77747">
        <ele>1874.7372623336</ele>
        <time>2013-09-01T05:50:56.330Z</time>
      </trkpt>
      <trkpt lat="45.73435" lon="6.77748">
        <ele>1875.5364633883</ele>
        <time>2013-09-01T05:51:00.330Z</time>
      </trkpt>
      <trkpt lat="45.73442" lon="6.77753">
        <ele>1876.336</ele>
        <time>2013-09-01T05:51:04.330Z</time>
      </trkpt>
      <trkpt lat="45.73449" lon="6.77762">
        <ele>1877.136</ele>
        <time>2013-09-01T05:51:08.330Z</time>
      </trkpt>
      <trkpt lat="45.73457" lon="6.7777">
        <ele>1877.936</ele>
        <time>2013-09-01T05:51:12.330Z</time>
      </trkpt>
      <trkpt lat="45.73465" lon="6.77775">
        <ele>1878.36600064</ele>
        <time>2013-09-01T05:51:16.310Z</time>
      </trkpt>
      <trkpt lat="45.73471" lon="6.77778">
        <ele>1878.66600064</ele>
        <time>2013-09-01T05:51:19.310Z</time>
      </trkpt>
      <trkpt lat="45.73478" lon="6.77782">
        <ele>1878.96600064</ele>
        <time>2013-09-01T05:51:22.310Z</time>
      </trkpt>
      <trkpt lat="45.73485" lon="6.77787">
        <ele>1879.268</ele>
        <time>2013-09-01T05:51:25.330Z</time>
      </trkpt>
      <trkpt lat="45.73492" lon="6.77794">
        <ele>1879.668</ele>
        <time>2013-09-01T05:51:29.330Z</time>
      </trkpt>
      <trkpt lat="45.73499" lon="6.77802">
        <ele>1879.93799936</ele>
        <time>2013-09-01T05:51:33.270Z</time>
      </trkpt>
      <trkpt lat="45.73506" lon="6.77809">
        <ele>1879.53799936</ele>
        <time>2013-09-01T05:51:37.270Z</time>
      </trkpt>
      <trkpt lat="45.73508" lon="6.77822">
        <ele>1879.03799936</ele>
        <time>2013-09-01T05:51:42.270Z</time>
      </trkpt>
      <trkpt lat="45.7351" lon="6.77833">
        <ele>1878.264</ele>
        <time>2013-09-01T05:51:46.330Z</time>
      </trkpt>
      <trkpt lat="45.7351" lon="6.77846">
        <ele>1877.064</ele>
        <time>2013-09-01T05:51:52.330Z</time>
      </trkpt>
      <trkpt lat="45.73516" lon="6.77854">
        <ele>1874.1075697211</ele>
        <time>2013-09-01T05:52:02.330Z</time>
      </trkpt>
      <trkpt lat="45.73525" lon="6.77849">
        <ele>1874</ele>
        <time>2013-09-01T05:52:10.270Z</time>
      </trkpt>
      <trkpt lat="45.73534" lon="6.77839">
        <ele>1874.736</ele>
        <time>2013-09-01T05:52:16.330Z</time>
      </trkpt>
      <trkpt lat="45.73543" lon="6.77828">
        <ele>1875.736</ele>
        <time>2013-09-01T05:52:21.330Z</time>
      </trkpt>
      <trkpt lat="45.73552" lon="6.7782">
        <ele>1876.72400128</ele>
        <time>2013-09-01T05:52:26.270Z</time>
      </trkpt>
      <trkpt lat="45.73562" lon="6.77816">
        <ele>1877.72400128</ele>
        <time>2013-09-01T05:52:31.270Z</time>
      </trkpt>
      <trkpt lat="45.73574" lon="6.77816">
        <ele>1878.368</ele>
        <time>2013-09-01T05:52:36.330Z</time>
      </trkpt>
      <trkpt lat="45.73582" lon="6.7782">
        <ele>1879</ele>
        <time>2013-09-01T05:52:48.330Z</time>
      </trkpt>
      <trkpt lat="45.73583" lon="6.77834">
        <ele>1879.36200064</ele>
        <time>2013-09-01T05:53:06.270Z</time>
      </trkpt>
      <trkpt lat="45.73587" lon="6.77849">
        <ele>1881.712</ele>
        <time>2013-09-01T05:53:21.210Z</time>
      </trkpt>
      <trkpt lat="45.73594" lon="6.77858">
        <ele>1882.936</ele>
        <time>2013-09-01T05:53:27.330Z</time>
      </trkpt>
      <trkpt lat="45.73602" lon="6.77869">
        <ele>1883.936</ele>
        <time>2013-09-01T05:53:32.330Z</time>
      </trkpt>
      <trkpt lat="45.73606" lon="6.77884">
        <ele>1885.136</ele>
        <time>2013-09-01T05:53:38.330Z</time>
      </trkpt>
      <trkpt lat="45.73613" lon="6.77895">
        <ele>1886.3363362286</ele>
        <time>2013-09-01T05:53:44.330Z</time>
      </trkpt>
      <trkpt lat="45.73615" lon="6.7791">
        <ele>1887.537537045</ele>
        <time>2013-09-01T05:53:50.330Z</time>
      </trkpt>
      <trkpt lat="45.73617" lon="6.77924">
        <ele>1889.1058935004</ele>
        <time>2013-09-01T05:53:56.330Z</time>
      </trkpt>
      <trkpt lat="45.73618" lon="6.77939">
        <ele>1891.64800256</ele>
        <time>2013-09-01T05:54:04.270Z</time>
      </trkpt>
      <trkpt lat="45.73608" lon="6.77936">
        <ele>1895.12400128</ele>
        <time>2013-09-01T05:54:13.270Z</time>
      </trkpt>
      <trkpt lat="45.73599" lon="6.77931">
        <ele>1896.52400128</ele>
        <time>2013-09-01T05:54:20.270Z</time>
      </trkpt>
      <trkpt lat="45.73589" lon="6.77929">
        <ele>1898.12400128</ele>
        <time>2013-09-01T05:54:28.270Z</time>
      </trkpt>
      <trkpt lat="45.73579" lon="6.77925">
        <ele>1899.936</ele>
        <time>2013-09-01T05:54:37.330Z</time>
      </trkpt>
      <trkpt lat="45.7357" lon="6.77922">
        <ele>1901.4807139131</ele>
        <time>2013-09-01T05:54:44.270Z</time>
      </trkpt>
      <trkpt lat="45.73561" lon="6.77919">
        <ele>1904</ele>
        <time>2013-09-01T05:54:54.270Z</time>
      </trkpt>
      <trkpt lat="45.73552" lon="6.77916">
        <ele>1904</ele>
        <time>2013-09-01T05:55:02.270Z</time>
      </trkpt>
      <trkpt lat="45.73548" lon="6.77921">
        <ele>1905.136</ele>
        <time>2013-09-01T05:55:08.330Z</time>
      </trkpt>
      <trkpt lat="45.73554" lon="6.77929">
        <ele>1906.512</ele>
        <time>2013-09-01T05:55:15.210Z</time>
      </trkpt>
      <trkpt lat="45.73558" lon="6.77941">
        <ele>1907.91400192</ele>
        <time>2013-09-01T05:55:22.220Z</time>
      </trkpt>
      <trkpt lat="45.73561" lon="6.77953">
        <ele>1909.136</ele>
        <time>2013-09-01T05:55:28.330Z</time>
      </trkpt>
      <trkpt lat="45.73565" lon="6.77967">
        <ele>1911.38600192</ele>
        <time>2013-09-01T05:55:37.270Z</time>
      </trkpt>
      <trkpt lat="45.73571" lon="6.77979">
        <ele>1913.3363362286</ele>
        <time>2013-09-01T05:55:44.330Z</time>
      </trkpt>
      <trkpt lat="45.73576" lon="6.77993">
        <ele>1914.9379373172</ele>
        <time>2013-09-01T05:55:52.330Z</time>
      </trkpt>
      <trkpt lat="45.73583" lon="6.78001">
        <ele>1915.9370625973</ele>
        <time>2013-09-01T05:55:57.330Z</time>
      </trkpt>
      <trkpt lat="45.73592" lon="6.78008">
        <ele>1917.12400128</ele>
        <time>2013-09-01T05:56:03.270Z</time>
      </trkpt>
      <trkpt lat="45.73599" lon="6.78018">
        <ele>1918.12400128</ele>
        <time>2013-09-01T05:56:08.270Z</time>
      </trkpt>
      <trkpt lat="45.73602" lon="6.78034">
        <ele>1919.4855165588</ele>
        <time>2013-09-01T05:56:14.270Z</time>
      </trkpt>
      <trkpt lat="45.73603" lon="6.78048">
        <ele>1920.9840185364</ele>
        <time>2013-09-01T05:56:19.270Z</time>
      </trkpt>
      <trkpt lat="45.73608" lon="6.78059">
        <ele>1922.5015023018</ele>
        <time>2013-09-01T05:56:24.330Z</time>
      </trkpt>
      <trkpt lat="45.73613" lon="6.78067">
        <ele>1923.7027031182</ele>
        <time>2013-09-01T05:56:28.330Z</time>
      </trkpt>
      <trkpt lat="45.7362" lon="6.78072">
        <ele>1925.136</ele>
        <time>2013-09-01T05:56:33.330Z</time>
      </trkpt>
      <trkpt lat="45.73624" lon="6.78079">
        <ele>1926.336</ele>
        <time>2013-09-01T05:56:39.330Z</time>
      </trkpt>
      <trkpt lat="45.73628" lon="6.78084">
        <ele>1927.5365363647</ele>
        <time>2013-09-01T05:56:45.330Z</time>
      </trkpt>
      <trkpt lat="45.73632" lon="6.78092">
        <ele>1928.9379373172</ele>
        <time>2013-09-01T05:56:52.330Z</time>
      </trkpt>
      <trkpt lat="45.73636" lon="6.78099">
        <ele>1929.7372623336</ele>
        <time>2013-09-01T05:56:56.330Z</time>
      </trkpt>
      <trkpt lat="45.7364" lon="6.78106">
        <ele>1930.3366631246</ele>
        <time>2013-09-01T05:56:59.330Z</time>
      </trkpt>
      <trkpt lat="45.73644" lon="6.78114">
        <ele>1930.9360639156</ele>
        <time>2013-09-01T05:57:02.330Z</time>
      </trkpt>
      <trkpt lat="45.73651" lon="6.78127">
        <ele>1932.136</ele>
        <time>2013-09-01T05:57:08.330Z</time>
      </trkpt>
      <trkpt lat="45.7366" lon="6.78137">
        <ele>1933.736</ele>
        <time>2013-09-01T05:57:16.330Z</time>
      </trkpt>
      <trkpt lat="45.73654" lon="6.78144">
        <ele>1935.76200064</ele>
        <time>2013-09-01T05:57:30.270Z</time>
      </trkpt>
      <trkpt lat="45.73647" lon="6.78143">
        <ele>1937.252</ele>
        <time>2013-09-01T05:58:35.170Z</time>
      </trkpt>
      <trkpt lat="45.73638" lon="6.78142">
        <ele>1937.852</ele>
        <time>2013-09-01T05:58:41.170Z</time>
      </trkpt>
      <trkpt lat="45.73629" lon="6.78139">
        <ele>1939.37400192</ele>
        <time>2013-09-01T05:58:47.230Z</time>
      </trkpt>
      <trkpt lat="45.7362" lon="6.78136">
        <ele>1941.104</ele>
        <time>2013-09-01T05:58:53.170Z</time>
      </trkpt>
      <trkpt lat="45.73613" lon="6.78134">
        <ele>1942.104</ele>
        <time>2013-09-01T05:58:58.170Z</time>
      </trkpt>
      <trkpt lat="45.73605" lon="6.78133">
        <ele>1943.704</ele>
        <time>2013-09-01T05:59:06.170Z</time>
      </trkpt>
      <trkpt lat="45.73597" lon="6.78133">
        <ele>1944.904</ele>
        <time>2013-09-01T05:59:12.170Z</time>
      </trkpt>
      <trkpt lat="45.73587" lon="6.7813">
        <ele>1946.31600128</ele>
        <time>2013-09-01T05:59:19.230Z</time>
      </trkpt>
      <trkpt lat="45.73577" lon="6.78129">
        <ele>1947.712</ele>
        <time>2013-09-01T05:59:26.210Z</time>
      </trkpt>
      <trkpt lat="45.73567" lon="6.78127">
        <ele>1949.456</ele>
        <time>2013-09-01T05:59:34.170Z</time>
      </trkpt>
      <trkpt lat="45.73558" lon="6.78126">
        <ele>1951.556</ele>
        <time>2013-09-01T05:59:41.170Z</time>
      </trkpt>
      <trkpt lat="45.73548" lon="6.78123">
        <ele>1952.9049046151</ele>
        <time>2013-09-01T05:59:47.170Z</time>
      </trkpt>
      <trkpt lat="45.73538" lon="6.7812">
        <ele>1954.4765245879</ele>
        <time>2013-09-01T05:59:54.230Z</time>
      </trkpt>
      <trkpt lat="45.73528" lon="6.78117">
        <ele>1956.874127752</ele>
        <time>2013-09-01T06:00:02.230Z</time>
      </trkpt>
      <trkpt lat="45.73518" lon="6.78115">
        <ele>1958.512</ele>
        <time>2013-09-01T06:00:10.210Z</time>
      </trkpt>
      <trkpt lat="45.73507" lon="6.78117">
        <ele>1960.11600128</ele>
        <time>2013-09-01T06:00:18.230Z</time>
      </trkpt>
      <trkpt lat="45.73499" lon="6.78126">
        <ele>1961.7082107353</ele>
        <time>2013-09-01T06:00:26.230Z</time>
      </trkpt>
      <trkpt lat="45.73505" lon="6.78134">
        <ele>1963.8543983351</ele>
        <time>2013-09-01T06:00:41.210Z</time>
      </trkpt>
      <trkpt lat="45.73514" lon="6.78143">
        <ele>1966</ele>
        <time>2013-09-01T06:00:53.270Z</time>
      </trkpt>
      <trkpt lat="45.73523" lon="6.78151">
        <ele>1966</ele>
        <time>2013-09-01T06:01:01.310Z</time>
      </trkpt>
      <trkpt lat="45.73532" lon="6.78157">
        <ele>1966</ele>
        <time>2013-09-01T06:01:09.330Z</time>
      </trkpt>
      <trkpt lat="45.73542" lon="6.78164">
        <ele>1967.136</ele>
        <time>2013-09-01T06:01:18.330Z</time>
      </trkpt>
      <trkpt lat="45.73551" lon="6.78172">
        <ele>1969.872</ele>
        <time>2013-09-01T06:01:27.330Z</time>
      </trkpt>
      <trkpt lat="45.73559" lon="6.78181">
        <ele>1973.404</ele>
        <time>2013-09-01T06:01:37.330Z</time>
      </trkpt>
      <trkpt lat="45.73566" lon="6.78187">
        <ele>1975.1221240049</ele>
        <time>2013-09-01T06:01:43.260Z</time>
      </trkpt>
      <trkpt lat="45.73574" lon="6.78196">
        <ele>1976.3233248214</ele>
        <time>2013-09-01T06:01:49.260Z</time>
      </trkpt>
      <trkpt lat="45.73582" lon="6.78209">
        <ele>1977.5254753328</ele>
        <time>2013-09-01T06:01:55.270Z</time>
      </trkpt>
      <trkpt lat="45.73587" lon="6.78221">
        <ele>1978.7242769148</ele>
        <time>2013-09-01T06:02:01.270Z</time>
      </trkpt>
      <trkpt lat="45.73577" lon="6.78212">
        <ele>1980.404</ele>
        <time>2013-09-01T06:02:07.330Z</time>
      </trkpt>
      <trkpt lat="45.7357" lon="6.78206">
        <ele>1981.904</ele>
        <time>2013-09-01T06:02:12.330Z</time>
      </trkpt>
      <trkpt lat="45.73561" lon="6.78203">
        <ele>1983.736</ele>
        <time>2013-09-01T06:02:21.330Z</time>
      </trkpt>
      <trkpt lat="45.73551" lon="6.78202">
        <ele>1984.76600064</ele>
        <time>2013-09-01T06:02:30.310Z</time>
      </trkpt>
      <trkpt lat="45.73545" lon="6.78202">
        <ele>1986</ele>
        <time>2013-09-01T06:02:53.330Z</time>
      </trkpt>
      <trkpt lat="45.73537" lon="6.78203">
        <ele>1986.72400128</ele>
        <time>2013-09-01T06:03:06.270Z</time>
      </trkpt>
      <trkpt lat="45.7353" lon="6.78203">
        <ele>1988.3605584064</ele>
        <time>2013-09-01T06:03:16.270Z</time>
      </trkpt>
      <trkpt lat="45.7352" lon="6.78204">
        <ele>1989.7188767872</ele>
        <time>2013-09-01T06:03:26.270Z</time>
      </trkpt>
      <trkpt lat="45.73511" lon="6.78205">
        <ele>1990.7228928514</ele>
        <time>2013-09-01T06:03:31.270Z</time>
      </trkpt>
      <trkpt lat="45.73501" lon="6.78205">
        <ele>1992.104</ele>
        <time>2013-09-01T06:03:36.330Z</time>
      </trkpt>
      <trkpt lat="45.73491" lon="6.78204">
        <ele>1993.904</ele>
        <time>2013-09-01T06:03:42.330Z</time>
      </trkpt>
      <trkpt lat="45.73481" lon="6.78199">
        <ele>1996.342341592</ele>
        <time>2013-09-01T06:03:47.330Z</time>
      </trkpt>
      <trkpt lat="45.73471" lon="6.78201">
        <ele>1999.3376618063</ele>
        <time>2013-09-01T06:03:54.330Z</time>
      </trkpt>
      <trkpt lat="45.73477" lon="6.78212">
        <ele>2000.7362636519</ele>
        <time>2013-09-01T06:04:01.330Z</time>
      </trkpt>
      <trkpt lat="45.73467" lon="6.78217">
        <ele>2003.64800256</ele>
        <time>2013-09-01T06:04:14.270Z</time>
      </trkpt>
      <trkpt lat="45.73473" lon="6.78229">
        <ele>2007.504</ele>
        <time>2013-09-01T06:04:24.330Z</time>
      </trkpt>
      <trkpt lat="45.7348" lon="6.78238">
        <ele>2009.604</ele>
        <time>2013-09-01T06:04:31.330Z</time>
      </trkpt>
      <trkpt lat="45.73481" lon="6.78252">
        <ele>2014.662663091</ele>
        <time>2013-09-01T06:04:49.270Z</time>
      </trkpt>
      <trkpt lat="45.7349" lon="6.78255">
        <ele>2015.7132863019</ele>
        <time>2013-09-01T06:04:56.210Z</time>
      </trkpt>
      <trkpt lat="45.735" lon="6.78256">
        <ele>2017.64800256</ele>
        <time>2013-09-01T06:05:04.270Z</time>
      </trkpt>
      <trkpt lat="45.7351" lon="6.7826">
        <ele>2020.84800256</ele>
        <time>2013-09-01T06:05:12.270Z</time>
      </trkpt>
      <trkpt lat="45.735" lon="6.78267">
        <ele>2024.512</ele>
        <time>2013-09-01T06:05:30.210Z</time>
      </trkpt>
      <trkpt lat="45.73492" lon="6.78277">
        <ele>2026.12400128</ele>
        <time>2013-09-01T06:05:38.270Z</time>
      </trkpt>
      <trkpt lat="45.73482" lon="6.7828">
        <ele>2028.0490512756</ele>
        <time>2013-09-01T06:05:45.270Z</time>
      </trkpt>
      <trkpt lat="45.73474" lon="6.78287">
        <ele>2031.0689307713</ele>
        <time>2013-09-01T06:05:53.330Z</time>
      </trkpt>
      <trkpt lat="45.73484" lon="6.78291">
        <ele>2032.4497991968</ele>
        <time>2013-09-01T06:06:17.170Z</time>
      </trkpt>
      <trkpt lat="45.73494" lon="6.78291">
        <ele>2032.9518072289</ele>
        <time>2013-09-01T06:06:22.170Z</time>
      </trkpt>
      <trkpt lat="45.73504" lon="6.78291">
        <ele>2034.11600128</ele>
        <time>2013-09-01T06:06:28.230Z</time>
      </trkpt>
      <trkpt lat="45.73513" lon="6.78294">
        <ele>2035.352</ele>
        <time>2013-09-01T06:06:36.170Z</time>
      </trkpt>
      <trkpt lat="45.7352" lon="6.783">
        <ele>2037.5454540805</ele>
        <time>2013-09-01T06:06:58.100Z</time>
      </trkpt>
      <trkpt lat="45.73528" lon="6.78308">
        <ele>2038.49799936</ele>
        <time>2013-09-01T06:07:05.140Z</time>
      </trkpt>
      <trkpt lat="45.73534" lon="6.78315">
        <ele>2039.69799936</ele>
        <time>2013-09-01T06:07:11.140Z</time>
      </trkpt>
      <trkpt lat="45.73538" lon="6.7832">
        <ele>2040.71600128</ele>
        <time>2013-09-01T06:07:16.230Z</time>
      </trkpt>
      <trkpt lat="45.73545" lon="6.78329">
        <ele>2042.29200128</ele>
        <time>2013-09-01T06:07:24.110Z</time>
      </trkpt>
      <trkpt lat="45.73552" lon="6.78338">
        <ele>2043.89200128</ele>
        <time>2013-09-01T06:07:32.110Z</time>
      </trkpt>
      <trkpt lat="45.73559" lon="6.78349">
        <ele>2045.97400192</ele>
        <time>2013-09-01T06:07:39.230Z</time>
      </trkpt>
      <trkpt lat="45.73562" lon="6.78357">
        <ele>2047.4564563102</ele>
        <time>2013-09-01T06:07:44.170Z</time>
      </trkpt>
      <trkpt lat="45.73564" lon="6.78367">
        <ele>2049.2582575349</ele>
        <time>2013-09-01T06:07:50.170Z</time>
      </trkpt>
      <trkpt lat="45.73568" lon="6.7838">
        <ele>2051.1168841133</ele>
        <time>2013-09-01T06:07:58.230Z</time>
      </trkpt>
      <trkpt lat="45.73569" lon="6.78389">
        <ele>2052.11600128</ele>
        <time>2013-09-01T06:08:03.230Z</time>
      </trkpt>
      <trkpt lat="45.73573" lon="6.78398">
        <ele>2053.31600128</ele>
        <time>2013-09-01T06:08:09.230Z</time>
      </trkpt>
      <trkpt lat="45.73574" lon="6.78407">
        <ele>2055.008</ele>
        <time>2013-09-01T06:08:15.170Z</time>
      </trkpt>
      <trkpt lat="45.73576" lon="6.78419">
        <ele>2058.13500288</ele>
        <time>2013-09-01T06:08:23.100Z</time>
      </trkpt>
      <trkpt lat="45.73582" lon="6.78431">
        <ele>2061.156</ele>
        <time>2013-09-01T06:08:33.170Z</time>
      </trkpt>
      <trkpt lat="45.73587" lon="6.78436">
        <ele>2062.656</ele>
        <time>2013-09-01T06:08:38.170Z</time>
      </trkpt>
      <trkpt lat="45.73595" lon="6.78446">
        <ele>2064.3533529198</ele>
        <time>2013-09-01T06:08:46.180Z</time>
      </trkpt>
      <trkpt lat="45.73605" lon="6.78444">
        <ele>2065.5353229167</ele>
        <time>2013-09-01T06:08:55.330Z</time>
      </trkpt>
      <trkpt lat="45.73614" lon="6.78443">
        <ele>2066.9283581861</ele>
        <time>2013-09-01T06:09:02.330Z</time>
      </trkpt>
      <trkpt lat="45.73621" lon="6.78449">
        <ele>2068.3212864257</ele>
        <time>2013-09-01T06:09:09.270Z</time>
      </trkpt>
      <trkpt lat="45.73626" lon="6.78458">
        <ele>2070.70699904</ele>
        <time>2013-09-01T06:09:18.340Z</time>
      </trkpt>
      <trkpt lat="45.73633" lon="6.78467">
        <ele>2072.352</ele>
        <time>2013-09-01T06:09:26.170Z</time>
      </trkpt>
      <trkpt lat="45.73642" lon="6.7847">
        <ele>2073.104</ele>
        <time>2013-09-01T06:09:33.170Z</time>
      </trkpt>
      <trkpt lat="45.73651" lon="6.78476">
        <ele>2074.504</ele>
        <time>2013-09-01T06:09:40.170Z</time>
      </trkpt>
      <trkpt lat="45.7366" lon="6.7847">
        <ele>2075</ele>
        <time>2013-09-01T06:09:47.230Z</time>
      </trkpt>
      <trkpt lat="45.73671" lon="6.78472">
        <ele>2075.7172835859</ele>
        <time>2013-09-01T06:09:56.230Z</time>
      </trkpt>
      <trkpt lat="45.7368" lon="6.7848">
        <ele>2077.51600128</ele>
        <time>2013-09-01T06:10:05.230Z</time>
      </trkpt>
      <trkpt lat="45.73688" lon="6.78489">
        <ele>2080.008</ele>
        <time>2013-09-01T06:10:15.170Z</time>
      </trkpt>
      <trkpt lat="45.73698" lon="6.78489">
        <ele>2083.04600064</ele>
        <time>2013-09-01T06:10:23.110Z</time>
      </trkpt>
      <trkpt lat="45.73707" lon="6.78496">
        <ele>2083.84600064</ele>
        <time>2013-09-01T06:10:31.110Z</time>
      </trkpt>
      <trkpt lat="45.73716" lon="6.78502">
        <ele>2085.31600128</ele>
        <time>2013-09-01T06:10:39.230Z</time>
      </trkpt>
      <trkpt lat="45.73722" lon="6.78506">
        <ele>2086</ele>
        <time>2013-09-01T06:10:44.230Z</time>
      </trkpt>
      <trkpt lat="45.73726" lon="6.78508">
        <ele>2087.0929080816</ele>
        <time>2013-09-01T06:10:58.110Z</time>
      </trkpt>
      <trkpt lat="45.73733" lon="6.78511">
        <ele>2088.504</ele>
        <time>2013-09-01T06:11:05.170Z</time>
      </trkpt>
      <trkpt lat="45.73741" lon="6.7852">
        <ele>2090.456</ele>
        <time>2013-09-01T06:11:14.170Z</time>
      </trkpt>
      <trkpt lat="45.73749" lon="6.78532">
        <ele>2092.856</ele>
        <time>2013-09-01T06:11:22.170Z</time>
      </trkpt>
      <trkpt lat="45.7375" lon="6.78541">
        <ele>2094.67400192</ele>
        <time>2013-09-01T06:11:28.230Z</time>
      </trkpt>
      <trkpt lat="45.73757" lon="6.78552">
        <ele>2097.356</ele>
        <time>2013-09-01T06:11:37.170Z</time>
      </trkpt>
      <trkpt lat="45.73765" lon="6.78561">
        <ele>2100.0445100552</ele>
        <time>2013-09-01T06:11:46.170Z</time>
      </trkpt>
      <trkpt lat="45.73773" lon="6.78571">
        <ele>2102.7310407219</ele>
        <time>2013-09-01T06:11:55.170Z</time>
      </trkpt>
      <trkpt lat="45.73783" lon="6.7858">
        <ele>2105.63200256</ele>
        <time>2013-09-01T06:12:04.230Z</time>
      </trkpt>
      <trkpt lat="45.73792" lon="6.78584">
        <ele>2110.104</ele>
        <time>2013-09-01T06:12:18.170Z</time>
      </trkpt>
      <trkpt lat="45.73801" lon="6.78589">
        <ele>2111.69200128</ele>
        <time>2013-09-01T06:12:26.110Z</time>
      </trkpt>
      <trkpt lat="45.73811" lon="6.78596">
        <ele>2113.304</ele>
        <time>2013-09-01T06:12:34.170Z</time>
      </trkpt>
      <trkpt lat="45.7382" lon="6.78597">
        <ele>2114.904</ele>
        <time>2013-09-01T06:12:42.170Z</time>
      </trkpt>
      <trkpt lat="45.7383" lon="6.78601">
        <ele>2116.5175183127</ele>
        <time>2013-09-01T06:12:50.230Z</time>
      </trkpt>
      <trkpt lat="45.7384" lon="6.78605">
        <ele>2119.2337682266</ele>
        <time>2013-09-01T06:12:58.230Z</time>
      </trkpt>
      <trkpt lat="45.73849" lon="6.78611">
        <ele>2121.452</ele>
        <time>2013-09-01T06:13:07.170Z</time>
      </trkpt>
      <trkpt lat="45.7385" lon="6.78617">
        <ele>2123</ele>
        <time>2013-09-01T06:13:52.170Z</time>
      </trkpt>
      <trkpt lat="45.73857" lon="6.78629">
        <ele>2127.056</ele>
        <time>2013-09-01T06:14:06.170Z</time>
      </trkpt>
      <trkpt lat="45.73865" lon="6.78635">
        <ele>2129.7552449967</ele>
        <time>2013-09-01T06:14:15.170Z</time>
      </trkpt>
      <trkpt lat="45.73872" lon="6.78644">
        <ele>2132.5765763919</ele>
        <time>2013-09-01T06:14:24.100Z</time>
      </trkpt>
      <trkpt lat="45.73879" lon="6.78656">
        <ele>2136.1553784861</ele>
        <time>2013-09-01T06:14:33.170Z</time>
      </trkpt>
      <trkpt lat="45.73887" lon="6.78665">
        <ele>2138.8446215139</ele>
        <time>2013-09-01T06:14:42.170Z</time>
      </trkpt>
      <trkpt lat="45.73896" lon="6.78672">
        <ele>2139.7500003213</ele>
        <time>2013-09-01T06:14:50.160Z</time>
      </trkpt>
      <trkpt lat="45.73902" lon="6.78683">
        <ele>2141.11600128</ele>
        <time>2013-09-01T06:14:58.230Z</time>
      </trkpt>
      <trkpt lat="45.73902" lon="6.78692">
        <ele>2142.31600128</ele>
        <time>2013-09-01T06:15:04.230Z</time>
      </trkpt>
      <trkpt lat="45.73902" lon="6.78699">
        <ele>2143.51600128</ele>
        <time>2013-09-01T06:15:10.230Z</time>
      </trkpt>
      <trkpt lat="45.73901" lon="6.7871">
        <ele>2145.356</ele>
        <time>2013-09-01T06:15:17.170Z</time>
      </trkpt>
      <trkpt lat="45.73902" lon="6.7872">
        <ele>2146.856</ele>
        <time>2013-09-01T06:15:22.170Z</time>
      </trkpt>
      <trkpt lat="45.73902" lon="6.78729">
        <ele>2147.256</ele>
        <time>2013-09-01T06:15:25.210Z</time>
      </trkpt>
      <trkpt lat="45.73904" lon="6.78739">
        <ele>2147.556</ele>
        <time>2013-09-01T06:15:28.210Z</time>
      </trkpt>
      <trkpt lat="45.73911" lon="6.78751">
        <ele>2148.11600128</ele>
        <time>2013-09-01T06:15:33.230Z</time>
      </trkpt>
      <trkpt lat="45.73917" lon="6.78763">
        <ele>2149.11600128</ele>
        <time>2013-09-01T06:15:38.230Z</time>
      </trkpt>
      <trkpt lat="45.73923" lon="6.78776">
        <ele>2150.11600128</ele>
        <time>2013-09-01T06:15:43.230Z</time>
      </trkpt>
      <trkpt lat="45.73928" lon="6.78784">
        <ele>2150.91600128</ele>
        <time>2013-09-01T06:15:47.230Z</time>
      </trkpt>
      <trkpt lat="45.73933" lon="6.78796">
        <ele>2151.71600128</ele>
        <time>2013-09-01T06:15:51.230Z</time>
      </trkpt>
      <trkpt lat="45.73937" lon="6.78806">
        <ele>2151.52599808</ele>
        <time>2013-09-01T06:15:54.230Z</time>
      </trkpt>
      <trkpt lat="45.7394" lon="6.78815">
        <ele>2150.62599808</ele>
        <time>2013-09-01T06:15:57.230Z</time>
      </trkpt>
      <trkpt lat="45.73941" lon="6.78825">
        <ele>2149.72599808</ele>
        <time>2013-09-01T06:16:00.230Z</time>
      </trkpt>
      <trkpt lat="45.7394" lon="6.78836">
        <ele>2149</ele>
        <time>2013-09-01T06:16:03.170Z</time>
      </trkpt>
      <trkpt lat="45.7394" lon="6.78844">
        <ele>2149</ele>
        <time>2013-09-01T06:16:05.170Z</time>
      </trkpt>
      <trkpt lat="45.73946" lon="6.78857">
        <ele>2149</ele>
        <time>2013-09-01T06:16:10.170Z</time>
      </trkpt>
      <trkpt lat="45.7395" lon="6.78869">
        <ele>2149</ele>
        <time>2013-09-01T06:16:14.230Z</time>
      </trkpt>
      <trkpt lat="45.73954" lon="6.78879">
        <ele>2149</ele>
        <time>2013-09-01T06:16:17.230Z</time>
      </trkpt>
      <trkpt lat="45.73958" lon="6.78888">
        <ele>2149</ele>
        <time>2013-09-01T06:16:20.230Z</time>
      </trkpt>
      <trkpt lat="45.73961" lon="6.78899">
        <ele>2148.88399872</ele>
        <time>2013-09-01T06:16:23.230Z</time>
      </trkpt>
      <trkpt lat="45.73962" lon="6.7891">
        <ele>2148.28399872</ele>
        <time>2013-09-01T06:16:26.230Z</time>
      </trkpt>
      <trkpt lat="45.73964" lon="6.78924">
        <ele>2147.48399872</ele>
        <time>2013-09-01T06:16:30.230Z</time>
      </trkpt>
      <trkpt lat="45.73969" lon="6.78936">
        <ele>2146.74199936</ele>
        <time>2013-09-01T06:16:35.230Z</time>
      </trkpt>
      <trkpt lat="45.73972" lon="6.78943">
        <ele>2146.34199936</ele>
        <time>2013-09-01T06:16:39.230Z</time>
      </trkpt>
      <trkpt lat="45.73981" lon="6.78946">
        <ele>2146.8518518993</ele>
        <time>2013-09-01T06:16:51.160Z</time>
      </trkpt>
      <trkpt lat="45.73988" lon="6.78934">
        <ele>2147.6523475412</ele>
        <time>2013-09-01T06:16:59.170Z</time>
      </trkpt>
      <trkpt lat="45.73996" lon="6.78925">
        <ele>2149.11600128</ele>
        <time>2013-09-01T06:17:08.230Z</time>
      </trkpt>
      <trkpt lat="45.74006" lon="6.7892">
        <ele>2150.352</ele>
        <time>2013-09-01T06:17:16.170Z</time>
      </trkpt>
      <trkpt lat="45.74015" lon="6.7892">
        <ele>2151.1048485524</ele>
        <time>2013-09-01T06:17:23.180Z</time>
      </trkpt>
      <trkpt lat="45.74021" lon="6.78923">
        <ele>2152.289811659</ele>
        <time>2013-09-01T06:17:29.170Z</time>
      </trkpt>
      <trkpt lat="45.74031" lon="6.7892">
        <ele>2154.9443879294</ele>
        <time>2013-09-01T06:17:39.170Z</time>
      </trkpt>
      <trkpt lat="45.74041" lon="6.78918">
        <ele>2158.7927951014</ele>
        <time>2013-09-01T06:17:48.230Z</time>
      </trkpt>
      <trkpt lat="45.74049" lon="6.78924">
        <ele>2161.4525472775</ele>
        <time>2013-09-01T06:17:57.170Z</time>
      </trkpt>
      <trkpt lat="45.74054" lon="6.78912">
        <ele>2163.088</ele>
        <time>2013-09-01T06:18:23.090Z</time>
      </trkpt>
      <trkpt lat="45.74064" lon="6.78911">
        <ele>2165.05800064</ele>
        <time>2013-09-01T06:18:33.230Z</time>
      </trkpt>
      <trkpt lat="45.74069" lon="6.78916">
        <ele>2165.45800064</ele>
        <time>2013-09-01T06:18:37.230Z</time>
      </trkpt>
      <trkpt lat="45.74078" lon="6.78926">
        <ele>2165.95800064</ele>
        <time>2013-09-01T06:18:42.230Z</time>
      </trkpt>
      <trkpt lat="45.74087" lon="6.78928">
        <ele>2168</ele>
        <time>2013-09-01T06:18:57.170Z</time>
      </trkpt>
      <trkpt lat="45.74096" lon="6.78929">
        <ele>2168</ele>
        <time>2013-09-01T06:19:11.170Z</time>
      </trkpt>
      <trkpt lat="45.74106" lon="6.78935">
        <ele>2168</ele>
        <time>2013-09-01T06:19:19.230Z</time>
      </trkpt>
      <trkpt lat="45.74114" lon="6.78943">
        <ele>2168.71600128</ele>
        <time>2013-09-01T06:19:26.230Z</time>
      </trkpt>
      <trkpt lat="45.7412" lon="6.78952">
        <ele>2170.104</ele>
        <time>2013-09-01T06:19:33.170Z</time>
      </trkpt>
      <trkpt lat="45.74126" lon="6.78964">
        <ele>2171.704</ele>
        <time>2013-09-01T06:19:41.170Z</time>
      </trkpt>
      <trkpt lat="45.74132" lon="6.78975">
        <ele>2173.0930940242</ele>
        <time>2013-09-01T06:19:48.110Z</time>
      </trkpt>
      <trkpt lat="45.74138" lon="6.78986">
        <ele>2175.0339654055</ele>
        <time>2013-09-01T06:19:56.090Z</time>
      </trkpt>
      <trkpt lat="45.74144" lon="6.78997">
        <ele>2177.30599936</ele>
        <time>2013-09-01T06:20:04.180Z</time>
      </trkpt>
      <trkpt lat="45.74145" lon="6.79007">
        <ele>2178.304</ele>
        <time>2013-09-01T06:20:09.170Z</time>
      </trkpt>
      <trkpt lat="45.74145" lon="6.79017">
        <ele>2179.256972749</ele>
        <time>2013-09-01T06:20:15.230Z</time>
      </trkpt>
      <trkpt lat="45.74144" lon="6.79028">
        <ele>2179.8545823108</ele>
        <time>2013-09-01T06:20:21.230Z</time>
      </trkpt>
      <trkpt lat="45.74146" lon="6.79039">
        <ele>2180.8995983936</ele>
        <time>2013-09-01T06:20:27.170Z</time>
      </trkpt>
      <trkpt lat="45.74151" lon="6.79053">
        <ele>2182.912</ele>
        <time>2013-09-01T06:20:37.210Z</time>
      </trkpt>
      <trkpt lat="45.74154" lon="6.79066">
        <ele>2185.0090086858</ele>
        <time>2013-09-01T06:20:45.170Z</time>
      </trkpt>
      <trkpt lat="45.74158" lon="6.79081">
        <ele>2189.0109880555</ele>
        <time>2013-09-01T06:20:55.170Z</time>
      </trkpt>
      <trkpt lat="45.74166" lon="6.79093">
        <ele>2192.052</ele>
        <time>2013-09-01T06:21:03.170Z</time>
      </trkpt>
      <trkpt lat="45.74168" lon="6.79102">
        <ele>2192.552</ele>
        <time>2013-09-01T06:21:08.170Z</time>
      </trkpt>
      <trkpt lat="45.7417" lon="6.79117">
        <ele>2194.112</ele>
        <time>2013-09-01T06:21:18.210Z</time>
      </trkpt>
      <trkpt lat="45.74177" lon="6.79127">
        <ele>2195.71600128</ele>
        <time>2013-09-01T06:21:26.230Z</time>
      </trkpt>
      <trkpt lat="45.74184" lon="6.79137">
        <ele>2197</ele>
        <time>2013-09-01T06:21:33.170Z</time>
      </trkpt>
      <trkpt lat="45.74194" lon="6.79144">
        <ele>2197</ele>
        <time>2013-09-01T06:21:39.170Z</time>
      </trkpt>
      <trkpt lat="45.74197" lon="6.79154">
        <ele>2197.6456463998</ele>
        <time>2013-09-01T06:21:49.100Z</time>
      </trkpt>
      <trkpt lat="45.74197" lon="6.79166">
        <ele>2199.0579414371</ele>
        <time>2013-09-01T06:21:56.170Z</time>
      </trkpt>
      <trkpt lat="45.74198" lon="6.79179">
        <ele>2201.156</ele>
        <time>2013-09-01T06:22:03.170Z</time>
      </trkpt>
      <trkpt lat="45.742" lon="6.79193">
        <ele>2204.17400192</ele>
        <time>2013-09-01T06:22:13.230Z</time>
      </trkpt>
      <trkpt lat="45.74198" lon="6.79207">
        <ele>2207.756</ele>
        <time>2013-09-01T06:22:25.170Z</time>
      </trkpt>
      <trkpt lat="45.74203" lon="6.7922">
        <ele>2211.808</ele>
        <time>2013-09-01T06:22:37.170Z</time>
      </trkpt>
      <trkpt lat="45.7421" lon="6.79231">
        <ele>2215.104</ele>
        <time>2013-09-01T06:22:48.170Z</time>
      </trkpt>
      <trkpt lat="45.74218" lon="6.79239">
        <ele>2217.37400192</ele>
        <time>2013-09-01T06:22:57.230Z</time>
      </trkpt>
      <trkpt lat="45.74226" lon="6.79248">
        <ele>2220.6379816774</ele>
        <time>2013-09-01T06:23:08.170Z</time>
      </trkpt>
      <trkpt lat="45.74233" lon="6.79259">
        <ele>2223.6410511275</ele>
        <time>2013-09-01T06:23:18.170Z</time>
      </trkpt>
      <trkpt lat="45.74243" lon="6.79263">
        <ele>2226.97400192</ele>
        <time>2013-09-01T06:23:29.230Z</time>
      </trkpt>
      <trkpt lat="45.74253" lon="6.79269">
        <ele>2228.65100032</ele>
        <time>2013-09-01T06:23:39.160Z</time>
      </trkpt>
      <trkpt lat="45.74259" lon="6.79279">
        <ele>2229.69200128</ele>
        <time>2013-09-01T06:23:46.110Z</time>
      </trkpt>
      <trkpt lat="45.74265" lon="6.79291">
        <ele>2231.728</ele>
        <time>2013-09-01T06:23:56.290Z</time>
      </trkpt>
      <trkpt lat="45.74274" lon="6.79295">
        <ele>2233.45400064</ele>
        <time>2013-09-01T06:24:07.190Z</time>
      </trkpt>
      <trkpt lat="45.74283" lon="6.79301">
        <ele>2234.51600128</ele>
        <time>2013-09-01T06:24:15.230Z</time>
      </trkpt>
      <trkpt lat="45.74293" lon="6.79295">
        <ele>2236.20400128</ele>
        <time>2013-09-01T06:24:23.160Z</time>
      </trkpt>
      <trkpt lat="45.74299" lon="6.79297">
        <ele>2238.60400128</ele>
        <time>2013-09-01T06:24:29.160Z</time>
      </trkpt>
      <trkpt lat="45.74302" lon="6.79311">
        <ele>2241.104</ele>
        <time>2013-09-01T06:24:38.170Z</time>
      </trkpt>
      <trkpt lat="45.7431" lon="6.79322">
        <ele>2243.1051047511</ele>
        <time>2013-09-01T06:24:48.170Z</time>
      </trkpt>
      <trkpt lat="45.74319" lon="6.79327">
        <ele>2245.3576418326</ele>
        <time>2013-09-01T06:24:57.170Z</time>
      </trkpt>
      <trkpt lat="45.74326" lon="6.79335">
        <ele>2247.756</ele>
        <time>2013-09-01T06:25:05.170Z</time>
      </trkpt>
      <trkpt lat="45.74336" lon="6.79331">
        <ele>2250.704</ele>
        <time>2013-09-01T06:25:16.170Z</time>
      </trkpt>
      <trkpt lat="45.74346" lon="6.79327">
        <ele>2252.31600128</ele>
        <time>2013-09-01T06:25:24.230Z</time>
      </trkpt>
      <trkpt lat="45.74353" lon="6.79323">
        <ele>2253.71600128</ele>
        <time>2013-09-01T06:25:31.230Z</time>
      </trkpt>
      <trkpt lat="45.74352" lon="6.79312">
        <ele>2255.93800192</ele>
        <time>2013-09-01T06:25:39.110Z</time>
      </trkpt>
      <trkpt lat="45.74351" lon="6.79302">
        <ele>2257.4524523075</ele>
        <time>2013-09-01T06:25:47.170Z</time>
      </trkpt>
      <trkpt lat="45.74359" lon="6.79298">
        <ele>2258</ele>
        <time>2013-09-01T06:26:33.170Z</time>
      </trkpt>
      <trkpt lat="45.74368" lon="6.79298">
        <ele>2258</ele>
        <time>2013-09-01T06:26:41.170Z</time>
      </trkpt>
      <trkpt lat="45.74376" lon="6.79292">
        <ele>2259</ele>
        <time>2013-09-01T06:27:00.170Z</time>
      </trkpt>
      <trkpt lat="45.74382" lon="6.79282">
        <ele>2259.45800064</ele>
        <time>2013-09-01T06:27:07.230Z</time>
      </trkpt>
      <trkpt lat="45.74386" lon="6.7927">
        <ele>2261.2512514911</ele>
        <time>2013-09-01T06:27:45.160Z</time>
      </trkpt>
      <trkpt lat="45.74391" lon="6.79256">
        <ele>2262.6353661172</ele>
        <time>2013-09-01T06:27:54.230Z</time>
      </trkpt>
      <trkpt lat="45.74393" lon="6.79246">
        <ele>2265.4325698086</ele>
        <time>2013-09-01T06:28:01.230Z</time>
      </trkpt>
      <trkpt lat="45.74396" lon="6.79231">
        <ele>2266.74600064</ele>
        <time>2013-09-01T06:28:10.110Z</time>
      </trkpt>
      <trkpt lat="45.74402" lon="6.79218">
        <ele>2267.55800064</ele>
        <time>2013-09-01T06:28:18.230Z</time>
      </trkpt>
      <trkpt lat="45.74412" lon="6.79211">
        <ele>2268.90000128</ele>
        <time>2013-09-01T06:28:27.150Z</time>
      </trkpt>
      <trkpt lat="45.7442" lon="6.79201">
        <ele>2271.0549453922</ele>
        <time>2013-09-01T06:28:36.170Z</time>
      </trkpt>
      <trkpt lat="45.74428" lon="6.79195">
        <ele>2273.3010972519</ele>
        <time>2013-09-01T06:28:44.170Z</time>
      </trkpt>
      <trkpt lat="45.74435" lon="6.79189">
        <ele>2274.8963110999</ele>
        <time>2013-09-01T06:28:52.170Z</time>
      </trkpt>
      <trkpt lat="45.74443" lon="6.79181">
        <ele>2276.5020080321</ele>
        <time>2013-09-01T06:29:00.170Z</time>
      </trkpt>
      <trkpt lat="45.74452" lon="6.79177">
        <ele>2278.136</ele>
        <time>2013-09-01T06:29:08.330Z</time>
      </trkpt>
      <trkpt lat="45.7446" lon="6.79172">
        <ele>2279.78300288</ele>
        <time>2013-09-01T06:29:15.260Z</time>
      </trkpt>
      <trkpt lat="45.7447" lon="6.79168">
        <ele>2282.068</ele>
        <time>2013-09-01T06:29:23.330Z</time>
      </trkpt>
      <trkpt lat="45.74478" lon="6.79161">
        <ele>2282.868</ele>
        <time>2013-09-01T06:29:31.330Z</time>
      </trkpt>
      <trkpt lat="45.74487" lon="6.79156">
        <ele>2284.536</ele>
        <time>2013-09-01T06:29:40.330Z</time>
      </trkpt>
      <trkpt lat="45.74495" lon="6.79154">
        <ele>2285.9369366368</ele>
        <time>2013-09-01T06:29:47.330Z</time>
      </trkpt>
      <trkpt lat="45.74504" lon="6.79152">
        <ele>2287.6753236125</ele>
        <time>2013-09-01T06:29:54.330Z</time>
      </trkpt>
      <trkpt lat="45.74512" lon="6.79144">
        <ele>2290.8721278313</ele>
        <time>2013-09-01T06:30:02.330Z</time>
      </trkpt>
      <trkpt lat="45.7452" lon="6.79135">
        <ele>2292.536</ele>
        <time>2013-09-01T06:30:10.330Z</time>
      </trkpt>
      <trkpt lat="45.74529" lon="6.79134">
        <ele>2293.56200064</ele>
        <time>2013-09-01T06:30:18.270Z</time>
      </trkpt>
      <trkpt lat="45.74538" lon="6.7914">
        <ele>2295.104</ele>
        <time>2013-09-01T06:30:26.330Z</time>
      </trkpt>
      <trkpt lat="45.74547" lon="6.79145">
        <ele>2298.04800256</ele>
        <time>2013-09-01T06:30:35.270Z</time>
      </trkpt>
      <trkpt lat="45.74557" lon="6.79149">
        <ele>2301.1621627509</ele>
        <time>2013-09-01T06:30:44.270Z</time>
      </trkpt>
      <trkpt lat="45.74568" lon="6.7915">
        <ele>2301.9629632952</ele>
        <time>2013-09-01T06:30:52.270Z</time>
      </trkpt>
      <trkpt lat="45.74577" lon="6.79158">
        <ele>2304.6043954779</ele>
        <time>2013-09-01T06:31:01.330Z</time>
      </trkpt>
      <trkpt lat="45.74586" lon="6.79167">
        <ele>2307.27400192</ele>
        <time>2013-09-01T06:31:10.230Z</time>
      </trkpt>
      <trkpt lat="45.74593" lon="6.79174">
        <ele>2308.552</ele>
        <time>2013-09-01T06:31:18.170Z</time>
      </trkpt>
      <trkpt lat="45.746" lon="6.79183">
        <ele>2309.704</ele>
        <time>2013-09-01T06:31:26.170Z</time>
      </trkpt>
      <trkpt lat="45.74602" lon="6.79194">
        <ele>2310.944</ele>
        <time>2013-09-01T06:31:32.370Z</time>
      </trkpt>
      <trkpt lat="45.74604" lon="6.79205">
        <ele>2312.7290836653</ele>
        <time>2013-09-01T06:31:41.330Z</time>
      </trkpt>
      <trkpt lat="45.74603" lon="6.7922">
        <ele>2316.4492476947</ele>
        <time>2013-09-01T06:31:51.270Z</time>
      </trkpt>
      <trkpt lat="45.74605" lon="6.79233">
        <ele>2319.3046950824</ele>
        <time>2013-09-01T06:32:00.330Z</time>
      </trkpt>
      <trkpt lat="45.74607" lon="6.79244">
        <ele>2321.704</ele>
        <time>2013-09-01T06:32:08.330Z</time>
      </trkpt>
      <trkpt lat="45.74608" lon="6.79257">
        <ele>2323.52400128</ele>
        <time>2013-09-01T06:32:15.270Z</time>
      </trkpt>
      <trkpt lat="45.74611" lon="6.79271">
        <ele>2325.26200064</ele>
        <time>2013-09-01T06:32:25.270Z</time>
      </trkpt>
      <trkpt lat="45.74617" lon="6.79284">
        <ele>2326.11600128</ele>
        <time>2013-09-01T06:32:33.230Z</time>
      </trkpt>
      <trkpt lat="45.74621" lon="6.79299">
        <ele>2328.1041040708</ele>
        <time>2013-09-01T06:32:43.170Z</time>
      </trkpt>
      <trkpt lat="45.74625" lon="6.79312">
        <ele>2329.7057051593</ele>
        <time>2013-09-01T06:32:51.170Z</time>
      </trkpt>
      <trkpt lat="45.74626" lon="6.79323">
        <ele>2331.7052942914</ele>
        <time>2013-09-01T06:32:58.330Z</time>
      </trkpt>
      <trkpt lat="45.74628" lon="6.79338">
        <ele>2333.92400128</ele>
        <time>2013-09-01T06:33:07.270Z</time>
      </trkpt>
      <trkpt lat="45.74631" lon="6.79352">
        <ele>2335.936</ele>
        <time>2013-09-01T06:33:17.330Z</time>
      </trkpt>
      <trkpt lat="45.74636" lon="6.79364">
        <ele>2337.78600192</ele>
        <time>2013-09-01T06:33:25.270Z</time>
      </trkpt>
      <trkpt lat="45.74642" lon="6.79377">
        <ele>2340.06200064</ele>
        <time>2013-09-01T06:33:33.270Z</time>
      </trkpt>
      <trkpt lat="45.74649" lon="6.79388">
        <ele>2340.86200064</ele>
        <time>2013-09-01T06:33:41.270Z</time>
      </trkpt>
      <trkpt lat="45.74655" lon="6.79401">
        <ele>2343.58600192</ele>
        <time>2013-09-01T06:33:51.270Z</time>
      </trkpt>
      <trkpt lat="45.74658" lon="6.79414">
        <ele>2346.2957069477</ele>
        <time>2013-09-01T06:34:00.310Z</time>
      </trkpt>
      <trkpt lat="45.74664" lon="6.79428">
        <ele>2349.2852874361</ele>
        <time>2013-09-01T06:34:10.270Z</time>
      </trkpt>
      <trkpt lat="45.74668" lon="6.7944">
        <ele>2351.12400128</ele>
        <time>2013-09-01T06:34:18.270Z</time>
      </trkpt>
      <trkpt lat="45.7467" lon="6.79451">
        <ele>2352.5079687649</ele>
        <time>2013-09-01T06:34:25.200Z</time>
      </trkpt>
      <trkpt lat="45.74674" lon="6.79466">
        <ele>2354.7748770171</ele>
        <time>2013-09-01T06:34:35.260Z</time>
      </trkpt>
      <trkpt lat="45.74675" lon="6.79475">
        <ele>2356.5537689877</ele>
        <time>2013-09-01T06:34:41.160Z</time>
      </trkpt>
      <trkpt lat="45.74678" lon="6.7949">
        <ele>2357.86499968</ele>
        <time>2013-09-01T06:34:51.290Z</time>
      </trkpt>
      <trkpt lat="45.74682" lon="6.79504">
        <ele>2360.0049946869</ele>
        <time>2013-09-01T06:34:59.330Z</time>
      </trkpt>
      <trkpt lat="45.74688" lon="6.79516">
        <ele>2361.46200064</ele>
        <time>2013-09-01T06:35:07.270Z</time>
      </trkpt>
      <trkpt lat="45.74694" lon="6.79529">
        <ele>2362.52400128</ele>
        <time>2013-09-01T06:35:15.270Z</time>
      </trkpt>
      <trkpt lat="45.74701" lon="6.7954">
        <ele>2364.336</ele>
        <time>2013-09-01T06:35:24.330Z</time>
      </trkpt>
      <trkpt lat="45.74707" lon="6.7955">
        <ele>2365.936</ele>
        <time>2013-09-01T06:35:32.330Z</time>
      </trkpt>
      <trkpt lat="45.74714" lon="6.79561">
        <ele>2368.304</ele>
        <time>2013-09-01T06:35:40.330Z</time>
      </trkpt>
      <trkpt lat="45.74721" lon="6.79572">
        <ele>2369.56200064</ele>
        <time>2013-09-01T06:35:48.270Z</time>
      </trkpt>
      <trkpt lat="45.74727" lon="6.79584">
        <ele>2370.936</ele>
        <time>2013-09-01T06:35:57.330Z</time>
      </trkpt>
      <trkpt lat="45.74732" lon="6.79596">
        <ele>2372.52400128</ele>
        <time>2013-09-01T06:36:05.270Z</time>
      </trkpt>
      <trkpt lat="45.74736" lon="6.7961">
        <ele>2374.52400128</ele>
        <time>2013-09-01T06:36:15.270Z</time>
      </trkpt>
      <trkpt lat="45.74739" lon="6.79624">
        <ele>2376.336</ele>
        <time>2013-09-01T06:36:24.330Z</time>
      </trkpt>
      <trkpt lat="45.74741" lon="6.79639">
        <ele>2378.12600064</ele>
        <time>2013-09-01T06:36:33.280Z</time>
      </trkpt>
      <trkpt lat="45.74745" lon="6.79652">
        <ele>2379.92400128</ele>
        <time>2013-09-01T06:36:42.270Z</time>
      </trkpt>
      <trkpt lat="45.74752" lon="6.79664">
        <ele>2380.85800064</ele>
        <time>2013-09-01T06:36:51.230Z</time>
      </trkpt>
      <trkpt lat="45.74756" lon="6.79677">
        <ele>2381.65800064</ele>
        <time>2013-09-01T06:36:59.230Z</time>
      </trkpt>
      <trkpt lat="45.7476" lon="6.79691">
        <ele>2382.904</ele>
        <time>2013-09-01T06:37:07.170Z</time>
      </trkpt>
      <trkpt lat="45.74766" lon="6.79704">
        <ele>2384.4985161627</ele>
        <time>2013-09-01T06:37:15.170Z</time>
      </trkpt>
      <trkpt lat="45.74773" lon="6.79715">
        <ele>2386.041455706</ele>
        <time>2013-09-01T06:37:23.170Z</time>
      </trkpt>
      <trkpt lat="45.74779" lon="6.79728">
        <ele>2386.9514661117</ele>
        <time>2013-09-01T06:37:32.170Z</time>
      </trkpt>
      <trkpt lat="45.74785" lon="6.79739">
        <ele>2388.51600128</ele>
        <time>2013-09-01T06:37:40.230Z</time>
      </trkpt>
      <trkpt lat="45.74793" lon="6.7975">
        <ele>2390.9759772649</ele>
        <time>2013-09-01T06:37:49.230Z</time>
      </trkpt>
      <trkpt lat="45.748" lon="6.7976">
        <ele>2393.7822209094</ele>
        <time>2013-09-01T06:37:57.100Z</time>
      </trkpt>
      <trkpt lat="45.74809" lon="6.79766">
        <ele>2397.056</ele>
        <time>2013-09-01T06:38:06.170Z</time>
      </trkpt>
      <trkpt lat="45.74818" lon="6.7977">
        <ele>2399.704</ele>
        <time>2013-09-01T06:38:16.170Z</time>
      </trkpt>
      <trkpt lat="45.74827" lon="6.79778">
        <ele>2401.91600128</ele>
        <time>2013-09-01T06:38:27.230Z</time>
      </trkpt>
      <trkpt lat="45.74835" lon="6.79789">
        <ele>2404.056</ele>
        <time>2013-09-01T06:38:36.170Z</time>
      </trkpt>
      <trkpt lat="45.7484" lon="6.79803">
        <ele>2406.5165176323</ele>
        <time>2013-09-01T06:38:45.230Z</time>
      </trkpt>
      <trkpt lat="45.74845" lon="6.79816">
        <ele>2408.30599936</ele>
        <time>2013-09-01T06:38:54.170Z</time>
      </trkpt>
      <trkpt lat="45.74852" lon="6.79827">
        <ele>2410.11800064</ele>
        <time>2013-09-01T06:39:03.230Z</time>
      </trkpt>
      <trkpt lat="45.74857" lon="6.79837">
        <ele>2411.91800064</ele>
        <time>2013-09-01T06:39:12.230Z</time>
      </trkpt>
      <trkpt lat="45.74857" lon="6.7985">
        <ele>2413.71800064</ele>
        <time>2013-09-01T06:39:21.230Z</time>
      </trkpt>
      <trkpt lat="45.74856" lon="6.79863">
        <ele>2416.25899904</ele>
        <time>2013-09-01T06:39:30.170Z</time>
      </trkpt>
      <trkpt lat="45.74857" lon="6.79875">
        <ele>2419.23600128</ele>
        <time>2013-09-01T06:39:38.230Z</time>
      </trkpt>
      <trkpt lat="45.7486" lon="6.79889">
        <ele>2422.10599936</ele>
        <time>2013-09-01T06:39:48.170Z</time>
      </trkpt>
      <trkpt lat="45.74865" lon="6.799">
        <ele>2423.35299968</ele>
        <time>2013-09-01T06:39:56.170Z</time>
      </trkpt>
      <trkpt lat="45.74867" lon="6.79916">
        <ele>2424.3044770721</ele>
        <time>2013-09-01T06:40:04.170Z</time>
      </trkpt>
      <trkpt lat="45.7487" lon="6.79929">
        <ele>2425.89651738</ele>
        <time>2013-09-01T06:40:12.170Z</time>
      </trkpt>
      <trkpt lat="45.74874" lon="6.79942">
        <ele>2426.7457290466</ele>
        <time>2013-09-01T06:40:20.110Z</time>
      </trkpt>
      <trkpt lat="45.74878" lon="6.79955">
        <ele>2427.5584420566</ele>
        <time>2013-09-01T06:40:28.230Z</time>
      </trkpt>
      <trkpt lat="45.74884" lon="6.79968">
        <ele>2428.904904615</ele>
        <time>2013-09-01T06:40:37.170Z</time>
      </trkpt>
      <trkpt lat="45.74887" lon="6.79981">
        <ele>2431.37700096</ele>
        <time>2013-09-01T06:40:47.230Z</time>
      </trkpt>
      <trkpt lat="45.7489" lon="6.79996">
        <ele>2434.35899904</ele>
        <time>2013-09-01T06:40:57.170Z</time>
      </trkpt>
      <trkpt lat="45.74896" lon="6.80009">
        <ele>2436.70599936</ele>
        <time>2013-09-01T06:41:06.170Z</time>
      </trkpt>
      <trkpt lat="45.74902" lon="6.8002">
        <ele>2438.51800064</ele>
        <time>2013-09-01T06:41:15.230Z</time>
      </trkpt>
      <trkpt lat="45.74906" lon="6.80033">
        <ele>2440.30599936</ele>
        <time>2013-09-01T06:41:24.170Z</time>
      </trkpt>
      <trkpt lat="45.7491" lon="6.80045">
        <ele>2441.90599936</ele>
        <time>2013-09-01T06:41:32.170Z</time>
      </trkpt>
      <trkpt lat="45.74914" lon="6.80058">
        <ele>2443.71800064</ele>
        <time>2013-09-01T06:41:41.230Z</time>
      </trkpt>
      <trkpt lat="45.74919" lon="6.80072">
        <ele>2446.24100096</ele>
        <time>2013-09-01T06:41:50.110Z</time>
      </trkpt>
      <trkpt lat="45.74924" lon="6.80084">
        <ele>2448.67700096</ele>
        <time>2013-09-01T06:41:58.230Z</time>
      </trkpt>
      <trkpt lat="45.74929" lon="6.80098">
        <ele>2450.45299968</ele>
        <time>2013-09-01T06:42:07.170Z</time>
      </trkpt>
      <trkpt lat="45.74934" lon="6.80112">
        <ele>2451.69400064</ele>
        <time>2013-09-01T06:42:16.110Z</time>
      </trkpt>
      <trkpt lat="45.74939" lon="6.80122">
        <ele>2454</ele>
        <time>2013-09-01T06:43:02.170Z</time>
      </trkpt>
      <trkpt lat="45.74943" lon="6.80135">
        <ele>2454.85299968</ele>
        <time>2013-09-01T06:43:21.170Z</time>
      </trkpt>
      <trkpt lat="45.74945" lon="6.80151">
        <ele>2455.65900032</ele>
        <time>2013-09-01T06:43:29.230Z</time>
      </trkpt>
      <trkpt lat="45.74945" lon="6.80166">
        <ele>2457.10599936</ele>
        <time>2013-09-01T06:43:38.170Z</time>
      </trkpt>
      <trkpt lat="45.74947" lon="6.80181">
        <ele>2458.34700032</ele>
        <time>2013-09-01T06:43:46.110Z</time>
      </trkpt>
      <trkpt lat="45.74948" lon="6.80196">
        <ele>2460.04100096</ele>
        <time>2013-09-01T06:44:16.110Z</time>
      </trkpt>
      <trkpt lat="45.74953" lon="6.8021">
        <ele>2462.51800064</ele>
        <time>2013-09-01T06:44:25.230Z</time>
      </trkpt>
      <trkpt lat="45.74958" lon="6.80223">
        <ele>2464.75899904</ele>
        <time>2013-09-01T06:44:35.170Z</time>
      </trkpt>
      <trkpt lat="45.74963" lon="6.80235">
        <ele>2467.104</ele>
        <time>2013-09-01T06:44:43.160Z</time>
      </trkpt>
      <trkpt lat="45.74968" lon="6.80249">
        <ele>2468.904</ele>
        <time>2013-09-01T06:44:52.160Z</time>
      </trkpt>
      <trkpt lat="45.74972" lon="6.80263">
        <ele>2470.71800064</ele>
        <time>2013-09-01T06:45:01.230Z</time>
      </trkpt>
      <trkpt lat="45.74977" lon="6.80276">
        <ele>2471.65299968</ele>
        <time>2013-09-01T06:45:09.170Z</time>
      </trkpt>
      <trkpt lat="45.74982" lon="6.80289">
        <ele>2473.67700096</ele>
        <time>2013-09-01T06:45:18.230Z</time>
      </trkpt>
      <trkpt lat="45.74987" lon="6.80303">
        <ele>2475.90599936</ele>
        <time>2013-09-01T06:45:27.170Z</time>
      </trkpt>
      <trkpt lat="45.74994" lon="6.80316">
        <ele>2477</ele>
        <time>2013-09-01T06:45:36.170Z</time>
      </trkpt>
      <trkpt lat="45.74999" lon="6.80328">
        <ele>2477.2905460826</ele>
        <time>2013-09-01T06:45:44.100Z</time>
      </trkpt>
      <trkpt lat="45.75006" lon="6.80339">
        <ele>2479.096482381</ele>
        <time>2013-09-01T06:45:53.170Z</time>
      </trkpt>
      <trkpt lat="45.75009" lon="6.80348">
        <ele>2480.9055270254</ele>
        <time>2013-09-01T06:46:02.170Z</time>
      </trkpt>
      <trkpt lat="45.75013" lon="6.80355">
        <ele>2483</ele>
        <time>2013-09-01T06:46:28.170Z</time>
      </trkpt>
      <trkpt lat="45.75018" lon="6.80363">
        <ele>2482.64600064</ele>
        <time>2013-09-01T06:46:36.180Z</time>
      </trkpt>
      <trkpt lat="45.75021" lon="6.80374">
        <ele>2482.09200128</ele>
        <time>2013-09-01T06:46:43.100Z</time>
      </trkpt>
      <trkpt lat="45.75027" lon="6.80386">
        <ele>2483.89199872</ele>
        <time>2013-09-01T06:46:52.100Z</time>
      </trkpt>
      <trkpt lat="45.75034" lon="6.80398">
        <ele>2485.51800064</ele>
        <time>2013-09-01T06:47:00.230Z</time>
      </trkpt>
      <trkpt lat="45.75039" lon="6.80412">
        <ele>2486.65299968</ele>
        <time>2013-09-01T06:47:09.170Z</time>
      </trkpt>
      <trkpt lat="45.75046" lon="6.80423">
        <ele>2487</ele>
        <time>2013-09-01T06:47:16.330Z</time>
      </trkpt>
      <trkpt lat="45.75052" lon="6.80435">
        <ele>2487</ele>
        <time>2013-09-01T06:47:24.270Z</time>
      </trkpt>
      <trkpt lat="45.75059" lon="6.80446">
        <ele>2487</ele>
        <time>2013-09-01T06:47:32.270Z</time>
      </trkpt>
      <trkpt lat="45.75068" lon="6.80453">
        <ele>2488.53799936</ele>
        <time>2013-09-01T06:47:40.330Z</time>
      </trkpt>
      <trkpt lat="45.75073" lon="6.80465">
        <ele>2490.13799936</ele>
        <time>2013-09-01T06:47:48.330Z</time>
      </trkpt>
      <trkpt lat="45.75076" lon="6.80479">
        <ele>2491.92600064</ele>
        <time>2013-09-01T06:47:57.270Z</time>
      </trkpt>
      <trkpt lat="45.75079" lon="6.80494">
        <ele>2493</ele>
        <time>2013-09-01T06:48:06.260Z</time>
      </trkpt>
      <trkpt lat="45.75081" lon="6.8051">
        <ele>2493.79499904</ele>
        <time>2013-09-01T06:48:15.290Z</time>
      </trkpt>
      <trkpt lat="45.75086" lon="6.80523">
        <ele>2496.32600064</ele>
        <time>2013-09-01T06:48:24.270Z</time>
      </trkpt>
      <trkpt lat="45.75092" lon="6.80536">
        <ele>2498.2059692596</ele>
        <time>2013-09-01T06:48:33.330Z</time>
      </trkpt>
      <trkpt lat="45.75097" lon="6.80546">
        <ele>2500.5940297215</ele>
        <time>2013-09-01T06:48:41.330Z</time>
      </trkpt>
      <trkpt lat="45.75104" lon="6.80555">
        <ele>2502.3226139264</ele>
        <time>2013-09-01T06:48:49.270Z</time>
      </trkpt>
      <trkpt lat="45.7511" lon="6.80567">
        <ele>2502.43500032</ele>
        <time>2013-09-01T06:48:58.290Z</time>
      </trkpt>
      <trkpt lat="45.75116" lon="6.8058">
        <ele>2502.33799936</ele>
        <time>2013-09-01T06:49:04.330Z</time>
      </trkpt>
      <trkpt lat="45.75119" lon="6.80595">
        <ele>2503.53799936</ele>
        <time>2013-09-01T06:49:10.330Z</time>
      </trkpt>
      <trkpt lat="45.75127" lon="6.80606">
        <ele>2504.92600064</ele>
        <time>2013-09-01T06:49:17.270Z</time>
      </trkpt>
      <trkpt lat="45.75132" lon="6.80617">
        <ele>2506.18900096</ele>
        <time>2013-09-01T06:49:23.270Z</time>
      </trkpt>
      <trkpt lat="45.75138" lon="6.80631">
        <ele>2507.98900096</ele>
        <time>2013-09-01T06:49:29.270Z</time>
      </trkpt>
      <trkpt lat="45.75139" lon="6.80645">
        <ele>2509.47700096</ele>
        <time>2013-09-01T06:49:34.230Z</time>
      </trkpt>
      <trkpt lat="45.75142" lon="6.80659">
        <ele>2511.87700096</ele>
        <time>2013-09-01T06:49:42.230Z</time>
      </trkpt>
      <trkpt lat="45.75147" lon="6.80672">
        <ele>2512</ele>
        <time>2013-09-01T06:49:50.230Z</time>
      </trkpt>
      <trkpt lat="45.75148" lon="6.8068">
        <ele>2512</ele>
        <time>2013-09-01T06:50:17.170Z</time>
      </trkpt>
      <trkpt lat="45.75148" lon="6.8068">
        <ele>2512</ele>
        <time>2013-09-01T06:50:17.730Z</time>
      </trkpt>
      <trkpt lat="45.75126" lon="6.80707">
        <ele>2517</ele>
        <time>2013-09-01T06:56:13.390Z</time>
      </trkpt>
      <trkpt lat="45.7512" lon="6.80706">
        <ele>2517</ele>
        <time>2013-09-01T06:56:19.230Z</time>
      </trkpt>
      <trkpt lat="45.75115" lon="6.80714">
        <ele>2516.84099968</ele>
        <time>2013-09-01T06:56:24.230Z</time>
      </trkpt>
      <trkpt lat="45.75105" lon="6.80711">
        <ele>2516.33100032</ele>
        <time>2013-09-01T06:56:29.330Z</time>
      </trkpt>
      <trkpt lat="45.75097" lon="6.80708">
        <ele>2516.03100032</ele>
        <time>2013-09-01T06:56:32.330Z</time>
      </trkpt>
      <trkpt lat="45.75091" lon="6.80711">
        <ele>2516</ele>
        <time>2013-09-01T06:56:35.330Z</time>
      </trkpt>
      <trkpt lat="45.75084" lon="6.80716">
        <ele>2516</ele>
        <time>2013-09-01T06:56:39.330Z</time>
      </trkpt>
      <trkpt lat="45.75081" lon="6.80723">
        <ele>2516</ele>
        <time>2013-09-01T06:56:42.330Z</time>
      </trkpt>
      <trkpt lat="45.75076" lon="6.80729">
        <ele>2516.26899968</ele>
        <time>2013-09-01T06:56:45.330Z</time>
      </trkpt>
      <trkpt lat="45.75068" lon="6.80731">
        <ele>2516.66899968</ele>
        <time>2013-09-01T06:56:49.330Z</time>
      </trkpt>
      <trkpt lat="45.75061" lon="6.80733">
        <ele>2516.96899968</ele>
        <time>2013-09-01T06:56:52.330Z</time>
      </trkpt>
      <trkpt lat="45.75052" lon="6.80733">
        <ele>2517</ele>
        <time>2013-09-01T06:56:56.330Z</time>
      </trkpt>
      <trkpt lat="45.75046" lon="6.80732">
        <ele>2517</ele>
        <time>2013-09-01T06:56:59.330Z</time>
      </trkpt>
      <trkpt lat="45.75038" lon="6.80728">
        <ele>2516.93699968</ele>
        <time>2013-09-01T06:57:03.270Z</time>
      </trkpt>
      <trkpt lat="45.75031" lon="6.80727">
        <ele>2516.63699968</ele>
        <time>2013-09-01T06:57:06.270Z</time>
      </trkpt>
      <trkpt lat="45.75025" lon="6.8073">
        <ele>2516.33699968</ele>
        <time>2013-09-01T06:57:09.270Z</time>
      </trkpt>
      <trkpt lat="45.75019" lon="6.80736">
        <ele>2516.03699968</ele>
        <time>2013-09-01T06:57:12.270Z</time>
      </trkpt>
      <trkpt lat="45.75016" lon="6.80742">
        <ele>2516</ele>
        <time>2013-09-01T06:57:17.330Z</time>
      </trkpt>
      <trkpt lat="45.75016" lon="6.80744">
        <ele>2516</ele>
        <time>2013-09-01T06:57:27.130Z</time>
      </trkpt>
      <trkpt lat="45.75021" lon="6.80737">
        <ele>2517</ele>
        <time>2013-09-01T06:59:04.490Z</time>
      </trkpt>
      <trkpt lat="45.75022" lon="6.80736">
        <ele>2517</ele>
        <time>2013-09-01T06:59:05.330Z</time>
      </trkpt>
      <trkpt lat="45.75027" lon="6.80731">
        <ele>2517</ele>
        <time>2013-09-01T06:59:08.330Z</time>
      </trkpt>
      <trkpt lat="45.75033" lon="6.80726">
        <ele>2517</ele>
        <time>2013-09-01T06:59:11.330Z</time>
      </trkpt>
      <trkpt lat="45.75039" lon="6.80726">
        <ele>2517</ele>
        <time>2013-09-01T06:59:14.330Z</time>
      </trkpt>
      <trkpt lat="45.75046" lon="6.8073">
        <ele>2517</ele>
        <time>2013-09-01T06:59:18.330Z</time>
      </trkpt>
      <trkpt lat="45.7505" lon="6.80732">
        <ele>2517</ele>
        <time>2013-09-01T06:59:21.330Z</time>
      </trkpt>
      <trkpt lat="45.75056" lon="6.80733">
        <ele>2517</ele>
        <time>2013-09-01T06:59:24.330Z</time>
      </trkpt>
      <trkpt lat="45.75063" lon="6.80733">
        <ele>2517</ele>
        <time>2013-09-01T06:59:27.330Z</time>
      </trkpt>
      <trkpt lat="45.7507" lon="6.80733">
        <ele>2517</ele>
        <time>2013-09-01T06:59:30.330Z</time>
      </trkpt>
      <trkpt lat="45.75079" lon="6.80729">
        <ele>2517</ele>
        <time>2013-09-01T06:59:33.330Z</time>
      </trkpt>
      <trkpt lat="45.75083" lon="6.80724">
        <ele>2517</ele>
        <time>2013-09-01T06:59:35.270Z</time>
      </trkpt>
      <trkpt lat="45.75087" lon="6.80718">
        <ele>2517</ele>
        <time>2013-09-01T06:59:37.270Z</time>
      </trkpt>
      <trkpt lat="45.75092" lon="6.80711">
        <ele>2517</ele>
        <time>2013-09-01T06:59:40.270Z</time>
      </trkpt>
      <trkpt lat="45.75098" lon="6.80707">
        <ele>2517</ele>
        <time>2013-09-01T06:59:43.270Z</time>
      </trkpt>
      <trkpt lat="45.75103" lon="6.80707">
        <ele>2517</ele>
        <time>2013-09-01T06:59:45.330Z</time>
      </trkpt>
      <trkpt lat="45.7511" lon="6.8071">
        <ele>2517</ele>
        <time>2013-09-01T06:59:48.330Z</time>
      </trkpt>
      <trkpt lat="45.75115" lon="6.80715">
        <ele>2517</ele>
        <time>2013-09-01T06:59:51.330Z</time>
      </trkpt>
      <trkpt lat="45.75121" lon="6.80718">
        <ele>2517.056</ele>
        <time>2013-09-01T06:59:54.200Z</time>
      </trkpt>
      <trkpt lat="45.75126" lon="6.80721">
        <ele>2517.456</ele>
        <time>2013-09-01T06:59:58.200Z</time>
      </trkpt>
      <trkpt lat="45.75129" lon="6.80719">
        <ele>2518</ele>
        <time>2013-09-01T07:00:08.270Z</time>
      </trkpt>
      <trkpt lat="45.75131" lon="6.80718">
        <ele>2518</ele>
        <time>2013-09-01T07:00:20.730Z</time>
      </trkpt>
      <trkpt lat="45.7513" lon="6.80714">
        <ele>2519.9997944737</ele>
        <time>2013-09-01T07:01:58.070Z</time>
      </trkpt>
      <trkpt lat="45.75132" lon="6.80707">
        <ele>2519.3200843515</ele>
        <time>2013-09-01T07:02:01.330Z</time>
      </trkpt>
      <trkpt lat="45.75134" lon="6.80693">
        <ele>2518.4832642678</ele>
        <time>2013-09-01T07:02:05.330Z</time>
      </trkpt>
      <trkpt lat="45.75139" lon="6.80685">
        <ele>2518</ele>
        <time>2013-09-01T07:02:11.270Z</time>
      </trkpt>
      <trkpt lat="45.75149" lon="6.80683">
        <ele>2518</ele>
        <time>2013-09-01T07:02:16.270Z</time>
      </trkpt>
      <trkpt lat="45.75144" lon="6.8067">
        <ele>2518</ele>
        <time>2013-09-01T07:02:31.270Z</time>
      </trkpt>
      <trkpt lat="45.75141" lon="6.80658">
        <ele>2518</ele>
        <time>2013-09-01T07:02:34.270Z</time>
      </trkpt>
      <trkpt lat="45.75138" lon="6.80646">
        <ele>2518</ele>
        <time>2013-09-01T07:02:37.270Z</time>
      </trkpt>
      <trkpt lat="45.75137" lon="6.80631">
        <ele>2516.89300096</ele>
        <time>2013-09-01T07:02:41.330Z</time>
      </trkpt>
      <trkpt lat="45.75133" lon="6.80617">
        <ele>2515.69300096</ele>
        <time>2013-09-01T07:02:45.330Z</time>
      </trkpt>
      <trkpt lat="45.75127" lon="6.80603">
        <ele>2514.83100032</ele>
        <time>2013-09-01T07:02:49.330Z</time>
      </trkpt>
      <trkpt lat="45.75124" lon="6.80591">
        <ele>2514.53100032</ele>
        <time>2013-09-01T07:02:52.330Z</time>
      </trkpt>
      <trkpt lat="45.7512" lon="6.8058">
        <ele>2514.23100032</ele>
        <time>2013-09-01T07:02:55.330Z</time>
      </trkpt>
      <trkpt lat="45.75116" lon="6.80572">
        <ele>2513.6849984</ele>
        <time>2013-09-01T07:02:58.270Z</time>
      </trkpt>
      <trkpt lat="45.75109" lon="6.80564">
        <ele>2511.6849984</ele>
        <time>2013-09-01T07:03:02.270Z</time>
      </trkpt>
      <trkpt lat="45.75105" lon="6.80558">
        <ele>2510.1849984</ele>
        <time>2013-09-01T07:03:05.270Z</time>
      </trkpt>
      <trkpt lat="45.751" lon="6.8055">
        <ele>2508.72400128</ele>
        <time>2013-09-01T07:03:08.330Z</time>
      </trkpt>
      <trkpt lat="45.75096" lon="6.80542">
        <ele>2507.52400128</ele>
        <time>2013-09-01T07:03:11.330Z</time>
      </trkpt>
      <trkpt lat="45.75091" lon="6.80534">
        <ele>2505.12400128</ele>
        <time>2013-09-01T07:03:17.330Z</time>
      </trkpt>
      <trkpt lat="45.75089" lon="6.80527">
        <ele>2504.46200064</ele>
        <time>2013-09-01T07:03:20.330Z</time>
      </trkpt>
      <trkpt lat="45.75084" lon="6.80518">
        <ele>2503.86200064</ele>
        <time>2013-09-01T07:03:23.330Z</time>
      </trkpt>
      <trkpt lat="45.75081" lon="6.80509">
        <ele>2503.26200064</ele>
        <time>2013-09-01T07:03:26.330Z</time>
      </trkpt>
      <trkpt lat="45.75078" lon="6.805">
        <ele>2502.83100032</ele>
        <time>2013-09-01T07:03:29.330Z</time>
      </trkpt>
      <trkpt lat="45.75076" lon="6.80488">
        <ele>2502.53100032</ele>
        <time>2013-09-01T07:03:32.330Z</time>
      </trkpt>
      <trkpt lat="45.75075" lon="6.8048">
        <ele>2500.52400128</ele>
        <time>2013-09-01T07:03:41.330Z</time>
      </trkpt>
      <trkpt lat="45.75073" lon="6.80474">
        <ele>2496.93699968</ele>
        <time>2013-09-01T07:04:28.270Z</time>
      </trkpt>
      <trkpt lat="45.75071" lon="6.80464">
        <ele>2495.73100032</ele>
        <time>2013-09-01T07:04:40.330Z</time>
      </trkpt>
      <trkpt lat="45.75067" lon="6.80452">
        <ele>2495.13100032</ele>
        <time>2013-09-01T07:04:46.330Z</time>
      </trkpt>
      <trkpt lat="45.75062" lon="6.80445">
        <ele>2494.66599936</ele>
        <time>2013-09-01T07:04:49.310Z</time>
      </trkpt>
      <trkpt lat="45.75058" lon="6.80438">
        <ele>2494.06599936</ele>
        <time>2013-09-01T07:04:52.310Z</time>
      </trkpt>
      <trkpt lat="45.75054" lon="6.8043">
        <ele>2493.46599936</ele>
        <time>2013-09-01T07:04:55.310Z</time>
      </trkpt>
      <trkpt lat="45.75051" lon="6.80421">
        <ele>2492.87399936</ele>
        <time>2013-09-01T07:04:58.270Z</time>
      </trkpt>
      <trkpt lat="45.75045" lon="6.8041">
        <ele>2492.07399936</ele>
        <time>2013-09-01T07:05:02.270Z</time>
      </trkpt>
      <trkpt lat="45.75041" lon="6.80404">
        <ele>2491.47399936</ele>
        <time>2013-09-01T07:05:05.270Z</time>
      </trkpt>
      <trkpt lat="45.75036" lon="6.80397">
        <ele>2490.944</ele>
        <time>2013-09-01T07:05:08.200Z</time>
      </trkpt>
      <trkpt lat="45.75031" lon="6.80389">
        <ele>2490.644</ele>
        <time>2013-09-01T07:05:11.200Z</time>
      </trkpt>
      <trkpt lat="45.75026" lon="6.80382">
        <ele>2490.344</ele>
        <time>2013-09-01T07:05:14.200Z</time>
      </trkpt>
      <trkpt lat="45.75022" lon="6.80376">
        <ele>2490.044</ele>
        <time>2013-09-01T07:05:17.200Z</time>
      </trkpt>
      <trkpt lat="45.75018" lon="6.8037">
        <ele>2489.63100032</ele>
        <time>2013-09-01T07:05:21.330Z</time>
      </trkpt>
      <trkpt lat="45.75016" lon="6.8036">
        <ele>2489.33100032</ele>
        <time>2013-09-01T07:05:24.330Z</time>
      </trkpt>
      <trkpt lat="45.75012" lon="6.80353">
        <ele>2489.03100032</ele>
        <time>2013-09-01T07:05:27.330Z</time>
      </trkpt>
      <trkpt lat="45.75007" lon="6.80342">
        <ele>2486.63699968</ele>
        <time>2013-09-01T07:05:41.270Z</time>
      </trkpt>
      <trkpt lat="45.75002" lon="6.80329">
        <ele>2486.13699968</ele>
        <time>2013-09-01T07:05:46.270Z</time>
      </trkpt>
      <trkpt lat="45.74995" lon="6.80317">
        <ele>2484.94799872</ele>
        <time>2013-09-01T07:05:50.270Z</time>
      </trkpt>
      <trkpt lat="45.74989" lon="6.80305">
        <ele>2482.94799872</ele>
        <time>2013-09-01T07:05:55.270Z</time>
      </trkpt>
      <trkpt lat="45.74984" lon="6.80292">
        <ele>2481.74099968</ele>
        <time>2013-09-01T07:06:00.230Z</time>
      </trkpt>
      <trkpt lat="45.7498" lon="6.80278">
        <ele>2481.24</ele>
        <time>2013-09-01T07:06:05.240Z</time>
      </trkpt>
      <trkpt lat="45.74976" lon="6.80264">
        <ele>2479.9750763788</ele>
        <time>2013-09-01T07:06:10.210Z</time>
      </trkpt>
      <trkpt lat="45.74971" lon="6.80252">
        <ele>2476.235707518</ele>
        <time>2013-09-01T07:06:25.290Z</time>
      </trkpt>
      <trkpt lat="45.74965" lon="6.80238">
        <ele>2475.83100032</ele>
        <time>2013-09-01T07:06:29.330Z</time>
      </trkpt>
      <trkpt lat="45.74961" lon="6.80223">
        <ele>2475.43100032</ele>
        <time>2013-09-01T07:06:33.330Z</time>
      </trkpt>
      <trkpt lat="45.74958" lon="6.80209">
        <ele>2475.03100032</ele>
        <time>2013-09-01T07:06:37.330Z</time>
      </trkpt>
      <trkpt lat="45.74953" lon="6.80195">
        <ele>2471.6955242016</ele>
        <time>2013-09-01T07:06:41.330Z</time>
      </trkpt>
      <trkpt lat="45.7495" lon="6.80183">
        <ele>2468.1134335088</ele>
        <time>2013-09-01T07:06:45.330Z</time>
      </trkpt>
      <trkpt lat="45.74948" lon="6.80171">
        <ele>2465.364821752</ele>
        <time>2013-09-01T07:06:49.270Z</time>
      </trkpt>
      <trkpt lat="45.74948" lon="6.80157">
        <ele>2463.7567820682</ele>
        <time>2013-09-01T07:06:53.270Z</time>
      </trkpt>
      <trkpt lat="45.74944" lon="6.80142">
        <ele>2462.1487423843</ele>
        <time>2013-09-01T07:06:57.270Z</time>
      </trkpt>
      <trkpt lat="45.74941" lon="6.80131">
        <ele>2461.73900032</ele>
        <time>2013-09-01T07:07:00.250Z</time>
      </trkpt>
      <trkpt lat="45.74937" lon="6.8012">
        <ele>2461.43799936</ele>
        <time>2013-09-01T07:07:03.260Z</time>
      </trkpt>
      <trkpt lat="45.74933" lon="6.80109">
        <ele>2461.13900032</ele>
        <time>2013-09-01T07:07:06.250Z</time>
      </trkpt>
      <trkpt lat="45.74929" lon="6.80098">
        <ele>2460.66200064</ele>
        <time>2013-09-01T07:07:09.330Z</time>
      </trkpt>
      <trkpt lat="45.74926" lon="6.80087">
        <ele>2460.06200064</ele>
        <time>2013-09-01T07:07:12.330Z</time>
      </trkpt>
      <trkpt lat="45.74922" lon="6.80076">
        <ele>2459.46200064</ele>
        <time>2013-09-01T07:07:15.330Z</time>
      </trkpt>
      <trkpt lat="45.74917" lon="6.80064">
        <ele>2458.17200384</ele>
        <time>2013-09-01T07:07:18.330Z</time>
      </trkpt>
      <trkpt lat="45.74911" lon="6.80049">
        <ele>2453.37200384</ele>
        <time>2013-09-01T07:07:22.330Z</time>
      </trkpt>
      <trkpt lat="45.74907" lon="6.80033">
        <ele>2448.57200384</ele>
        <time>2013-09-01T07:07:26.330Z</time>
      </trkpt>
      <trkpt lat="45.74904" lon="6.80019">
        <ele>2446.63100032</ele>
        <time>2013-09-01T07:07:31.330Z</time>
      </trkpt>
      <trkpt lat="45.74899" lon="6.80009">
        <ele>2445.63699968</ele>
        <time>2013-09-01T07:07:51.270Z</time>
      </trkpt>
      <trkpt lat="45.74895" lon="6.79996">
        <ele>2444.13699968</ele>
        <time>2013-09-01T07:08:06.270Z</time>
      </trkpt>
      <trkpt lat="45.74889" lon="6.79986">
        <ele>2443.46200064</ele>
        <time>2013-09-01T07:08:10.330Z</time>
      </trkpt>
      <trkpt lat="45.74886" lon="6.79971">
        <ele>2442.66200064</ele>
        <time>2013-09-01T07:08:14.330Z</time>
      </trkpt>
      <trkpt lat="45.74882" lon="6.79958">
        <ele>2441.37900288</ele>
        <time>2013-09-01T07:08:18.330Z</time>
      </trkpt>
      <trkpt lat="45.74877" lon="6.79946">
        <ele>2438.67900288</ele>
        <time>2013-09-01T07:08:21.330Z</time>
      </trkpt>
      <trkpt lat="45.74871" lon="6.79932">
        <ele>2432.8311690969</ele>
        <time>2013-09-01T07:08:29.330Z</time>
      </trkpt>
      <trkpt lat="45.74868" lon="6.79922">
        <ele>2431.9319319537</ele>
        <time>2013-09-01T07:08:38.330Z</time>
      </trkpt>
      <trkpt lat="45.74866" lon="6.79909">
        <ele>2431.0310313414</ele>
        <time>2013-09-01T07:08:47.330Z</time>
      </trkpt>
      <trkpt lat="45.74862" lon="6.79892">
        <ele>2428.07399936</ele>
        <time>2013-09-01T07:09:07.270Z</time>
      </trkpt>
      <trkpt lat="45.74858" lon="6.79877">
        <ele>2428</ele>
        <time>2013-09-01T07:09:11.310Z</time>
      </trkpt>
      <trkpt lat="45.74856" lon="6.79865">
        <ele>2428</ele>
        <time>2013-09-01T07:09:14.310Z</time>
      </trkpt>
      <trkpt lat="45.74857" lon="6.79851">
        <ele>2427.37900288</ele>
        <time>2013-09-01T07:09:18.330Z</time>
      </trkpt>
      <trkpt lat="45.74858" lon="6.79835">
        <ele>2423.77900288</ele>
        <time>2013-09-01T07:09:22.330Z</time>
      </trkpt>
      <trkpt lat="45.74854" lon="6.79823">
        <ele>2420.17900288</ele>
        <time>2013-09-01T07:09:26.330Z</time>
      </trkpt>
      <trkpt lat="45.74847" lon="6.79816">
        <ele>2417.8310298814</ele>
        <time>2013-09-01T07:09:29.330Z</time>
      </trkpt>
      <trkpt lat="45.74841" lon="6.79804">
        <ele>2415.0642314625</ele>
        <time>2013-09-01T07:09:33.330Z</time>
      </trkpt>
      <trkpt lat="45.74835" lon="6.79792">
        <ele>2412.2974330435</ele>
        <time>2013-09-01T07:09:37.330Z</time>
      </trkpt>
      <trkpt lat="45.7483" lon="6.79779">
        <ele>2410.5789460729</ele>
        <time>2013-09-01T07:09:41.270Z</time>
      </trkpt>
      <trkpt lat="45.74823" lon="6.79769">
        <ele>2408.9595128745</ele>
        <time>2013-09-01T07:09:45.270Z</time>
      </trkpt>
      <trkpt lat="45.74817" lon="6.79766">
        <ele>2407.55899776</ele>
        <time>2013-09-01T07:09:48.270Z</time>
      </trkpt>
      <trkpt lat="45.74812" lon="6.79761">
        <ele>2405.45899776</ele>
        <time>2013-09-01T07:09:51.270Z</time>
      </trkpt>
      <trkpt lat="45.74804" lon="6.79758">
        <ele>2402.65899776</ele>
        <time>2013-09-01T07:09:55.270Z</time>
      </trkpt>
      <trkpt lat="45.74796" lon="6.79753">
        <ele>2399.6550016</ele>
        <time>2013-09-01T07:10:00.330Z</time>
      </trkpt>
      <trkpt lat="45.74789" lon="6.79743">
        <ele>2397.6550016</ele>
        <time>2013-09-01T07:10:04.330Z</time>
      </trkpt>
      <trkpt lat="45.74785" lon="6.79734">
        <ele>2396.1550016</ele>
        <time>2013-09-01T07:10:07.330Z</time>
      </trkpt>
      <trkpt lat="45.74779" lon="6.79725">
        <ele>2395.19300096</ele>
        <time>2013-09-01T07:10:10.330Z</time>
      </trkpt>
      <trkpt lat="45.74773" lon="6.79713">
        <ele>2393.99300096</ele>
        <time>2013-09-01T07:10:14.330Z</time>
      </trkpt>
      <trkpt lat="45.74767" lon="6.79703">
        <ele>2393.09300096</ele>
        <time>2013-09-01T07:10:17.330Z</time>
      </trkpt>
      <trkpt lat="45.74762" lon="6.79693">
        <ele>2391.92400128</ele>
        <time>2013-09-01T07:10:20.330Z</time>
      </trkpt>
      <trkpt lat="45.74757" lon="6.79683">
        <ele>2390.72400128</ele>
        <time>2013-09-01T07:10:23.330Z</time>
      </trkpt>
      <trkpt lat="45.74753" lon="6.79673">
        <ele>2389.52400128</ele>
        <time>2013-09-01T07:10:26.330Z</time>
      </trkpt>
      <trkpt lat="45.74749" lon="6.79661">
        <ele>2389</ele>
        <time>2013-09-01T07:10:29.330Z</time>
      </trkpt>
      <trkpt lat="45.74745" lon="6.79649">
        <ele>2389</ele>
        <time>2013-09-01T07:10:32.330Z</time>
      </trkpt>
      <trkpt lat="45.7474" lon="6.79637">
        <ele>2389</ele>
        <time>2013-09-01T07:10:35.330Z</time>
      </trkpt>
      <trkpt lat="45.74736" lon="6.79624">
        <ele>2387.85899776</ele>
        <time>2013-09-01T07:10:39.270Z</time>
      </trkpt>
      <trkpt lat="45.74733" lon="6.79608">
        <ele>2384.35899776</ele>
        <time>2013-09-01T07:10:44.270Z</time>
      </trkpt>
      <trkpt lat="45.7473" lon="6.79592">
        <ele>2380.42199808</ele>
        <time>2013-09-01T07:10:50.270Z</time>
      </trkpt>
      <trkpt lat="45.74726" lon="6.79584">
        <ele>2378.62199808</ele>
        <time>2013-09-01T07:10:53.270Z</time>
      </trkpt>
      <trkpt lat="45.74721" lon="6.7957">
        <ele>2375.93100032</ele>
        <time>2013-09-01T07:10:58.330Z</time>
      </trkpt>
      <trkpt lat="45.74714" lon="6.79559">
        <ele>2375.53100032</ele>
        <time>2013-09-01T07:11:02.330Z</time>
      </trkpt>
      <trkpt lat="45.74711" lon="6.79553">
        <ele>2375.33100032</ele>
        <time>2013-09-01T07:11:04.330Z</time>
      </trkpt>
      <trkpt lat="45.74707" lon="6.79547">
        <ele>2375.13100032</ele>
        <time>2013-09-01T07:11:06.330Z</time>
      </trkpt>
      <trkpt lat="45.74703" lon="6.79539">
        <ele>2374.33199872</ele>
        <time>2013-09-01T07:11:09.310Z</time>
      </trkpt>
      <trkpt lat="45.74698" lon="6.7953">
        <ele>2373.13199872</ele>
        <time>2013-09-01T07:11:12.310Z</time>
      </trkpt>
      <trkpt lat="45.74692" lon="6.79522">
        <ele>2371.93199872</ele>
        <time>2013-09-01T07:11:15.310Z</time>
      </trkpt>
      <trkpt lat="45.74687" lon="6.79513">
        <ele>2370.6550016</ele>
        <time>2013-09-01T07:11:18.330Z</time>
      </trkpt>
      <trkpt lat="45.74682" lon="6.79499">
        <ele>2368.6550016</ele>
        <time>2013-09-01T07:11:22.330Z</time>
      </trkpt>
      <trkpt lat="45.74679" lon="6.79488">
        <ele>2367.1550016</ele>
        <time>2013-09-01T07:11:25.330Z</time>
      </trkpt>
      <trkpt lat="45.74675" lon="6.79473">
        <ele>2365.1550016</ele>
        <time>2013-09-01T07:11:29.330Z</time>
      </trkpt>
      <trkpt lat="45.74672" lon="6.79462">
        <ele>2363.6550016</ele>
        <time>2013-09-01T07:11:32.330Z</time>
      </trkpt>
      <trkpt lat="45.74668" lon="6.79448">
        <ele>2361.6550016</ele>
        <time>2013-09-01T07:11:36.330Z</time>
      </trkpt>
      <trkpt lat="45.74666" lon="6.79434">
        <ele>2359.6849984</ele>
        <time>2013-09-01T07:11:40.270Z</time>
      </trkpt>
      <trkpt lat="45.74662" lon="6.79419">
        <ele>2357.1849984</ele>
        <time>2013-09-01T07:11:45.270Z</time>
      </trkpt>
      <trkpt lat="45.74658" lon="6.79405">
        <ele>2353.97600256</ele>
        <time>2013-09-01T07:11:50.170Z</time>
      </trkpt>
      <trkpt lat="45.74652" lon="6.7939">
        <ele>2349.89599744</ele>
        <time>2013-09-01T07:11:55.270Z</time>
      </trkpt>
      <trkpt lat="45.74646" lon="6.79379">
        <ele>2347.32400128</ele>
        <time>2013-09-01T07:11:59.330Z</time>
      </trkpt>
      <trkpt lat="45.7464" lon="6.7937">
        <ele>2346.12400128</ele>
        <time>2013-09-01T07:12:02.330Z</time>
      </trkpt>
      <trkpt lat="45.74636" lon="6.79358">
        <ele>2344.12400128</ele>
        <time>2013-09-01T07:12:07.330Z</time>
      </trkpt>
      <trkpt lat="45.74628" lon="6.79345">
        <ele>2343.5396979973</ele>
        <time>2013-09-01T07:12:32.270Z</time>
      </trkpt>
      <trkpt lat="45.74625" lon="6.79331">
        <ele>2343.1376880763</ele>
        <time>2013-09-01T07:12:36.270Z</time>
      </trkpt>
      <trkpt lat="45.74623" lon="6.79315">
        <ele>2341.15899776</ele>
        <time>2013-09-01T07:12:40.270Z</time>
      </trkpt>
      <trkpt lat="45.74621" lon="6.79302">
        <ele>2338.352</ele>
        <time>2013-09-01T07:12:44.280Z</time>
      </trkpt>
      <trkpt lat="45.74618" lon="6.79292">
        <ele>2334.87399936</ele>
        <time>2013-09-01T07:12:58.270Z</time>
      </trkpt>
      <trkpt lat="45.74615" lon="6.79279">
        <ele>2332.93699968</ele>
        <time>2013-09-01T07:13:08.270Z</time>
      </trkpt>
      <trkpt lat="45.7461" lon="6.7927">
        <ele>2332.33699968</ele>
        <time>2013-09-01T07:13:14.270Z</time>
      </trkpt>
      <trkpt lat="45.74607" lon="6.79255">
        <ele>2330.66200064</ele>
        <time>2013-09-01T07:13:24.330Z</time>
      </trkpt>
      <trkpt lat="45.74604" lon="6.7924">
        <ele>2329.58600192</ele>
        <time>2013-09-01T07:13:28.330Z</time>
      </trkpt>
      <trkpt lat="45.74603" lon="6.79232">
        <ele>2327.78600192</ele>
        <time>2013-09-01T07:13:31.330Z</time>
      </trkpt>
      <trkpt lat="45.74601" lon="6.79217">
        <ele>2325.02199808</ele>
        <time>2013-09-01T07:13:49.270Z</time>
      </trkpt>
      <trkpt lat="45.74602" lon="6.792">
        <ele>2322.02199808</ele>
        <time>2013-09-01T07:13:54.270Z</time>
      </trkpt>
      <trkpt lat="45.74601" lon="6.79185">
        <ele>2319.6550016</ele>
        <time>2013-09-01T07:13:58.330Z</time>
      </trkpt>
      <trkpt lat="45.74596" lon="6.79171">
        <ele>2317.6550016</ele>
        <time>2013-09-01T07:14:02.330Z</time>
      </trkpt>
      <trkpt lat="45.7459" lon="6.79163">
        <ele>2316.1550016</ele>
        <time>2013-09-01T07:14:05.330Z</time>
      </trkpt>
      <trkpt lat="45.74583" lon="6.79158">
        <ele>2314.58600192</ele>
        <time>2013-09-01T07:14:08.330Z</time>
      </trkpt>
      <trkpt lat="45.74577" lon="6.79152">
        <ele>2312.78600192</ele>
        <time>2013-09-01T07:14:11.330Z</time>
      </trkpt>
      <trkpt lat="45.74571" lon="6.79146">
        <ele>2310.98600192</ele>
        <time>2013-09-01T07:14:14.330Z</time>
      </trkpt>
      <trkpt lat="45.74563" lon="6.79145">
        <ele>2309.18600192</ele>
        <time>2013-09-01T07:14:17.330Z</time>
      </trkpt>
      <trkpt lat="45.74557" lon="6.79144">
        <ele>2307.81700224</ele>
        <time>2013-09-01T07:14:19.330Z</time>
      </trkpt>
      <trkpt lat="45.74549" lon="6.79143">
        <ele>2305.71700224</ele>
        <time>2013-09-01T07:14:22.330Z</time>
      </trkpt>
      <trkpt lat="45.7454" lon="6.7914">
        <ele>2303.61700224</ele>
        <time>2013-09-01T07:14:25.330Z</time>
      </trkpt>
      <trkpt lat="45.74535" lon="6.79138">
        <ele>2302.21700224</ele>
        <time>2013-09-01T07:14:27.330Z</time>
      </trkpt>
      <trkpt lat="45.74529" lon="6.79136">
        <ele>2301.1550016</ele>
        <time>2013-09-01T07:14:29.330Z</time>
      </trkpt>
      <trkpt lat="45.74522" lon="6.79134">
        <ele>2299.6550016</ele>
        <time>2013-09-01T07:14:32.330Z</time>
      </trkpt>
      <trkpt lat="45.74515" lon="6.79136">
        <ele>2298.1550016</ele>
        <time>2013-09-01T07:14:35.330Z</time>
      </trkpt>
      <trkpt lat="45.7451" lon="6.79145">
        <ele>2296.34799872</ele>
        <time>2013-09-01T07:14:39.270Z</time>
      </trkpt>
      <trkpt lat="45.74504" lon="6.79152">
        <ele>2295.14799872</ele>
        <time>2013-09-01T07:14:42.270Z</time>
      </trkpt>
      <trkpt lat="45.74498" lon="6.79154">
        <ele>2293.94799872</ele>
        <time>2013-09-01T07:14:45.270Z</time>
      </trkpt>
      <trkpt lat="45.7449" lon="6.79155">
        <ele>2293</ele>
        <time>2013-09-01T07:14:48.330Z</time>
      </trkpt>
      <trkpt lat="45.74479" lon="6.79158">
        <ele>2293</ele>
        <time>2013-09-01T07:14:52.330Z</time>
      </trkpt>
      <trkpt lat="45.74473" lon="6.79164">
        <ele>2293</ele>
        <time>2013-09-01T07:14:55.330Z</time>
      </trkpt>
      <trkpt lat="45.74463" lon="6.7917">
        <ele>2291.47900288</ele>
        <time>2013-09-01T07:14:59.330Z</time>
      </trkpt>
      <trkpt lat="45.74453" lon="6.79174">
        <ele>2287.87900288</ele>
        <time>2013-09-01T07:15:03.330Z</time>
      </trkpt>
      <trkpt lat="45.74446" lon="6.79178">
        <ele>2283.53100032</ele>
        <time>2013-09-01T07:15:52.330Z</time>
      </trkpt>
      <trkpt lat="45.74435" lon="6.79182">
        <ele>2283.13100032</ele>
        <time>2013-09-01T07:15:56.330Z</time>
      </trkpt>
      <trkpt lat="45.74427" lon="6.79187">
        <ele>2281.81700224</ele>
        <time>2013-09-01T07:15:59.330Z</time>
      </trkpt>
      <trkpt lat="45.74417" lon="6.79194">
        <ele>2279.01700224</ele>
        <time>2013-09-01T07:16:03.330Z</time>
      </trkpt>
      <trkpt lat="45.74408" lon="6.79203">
        <ele>2276.21700224</ele>
        <time>2013-09-01T07:16:07.330Z</time>
      </trkpt>
      <trkpt lat="45.74398" lon="6.79211">
        <ele>2274.52400128</ele>
        <time>2013-09-01T07:16:11.330Z</time>
      </trkpt>
      <trkpt lat="45.74393" lon="6.79223">
        <ele>2272.92400128</ele>
        <time>2013-09-01T07:16:15.330Z</time>
      </trkpt>
      <trkpt lat="45.74393" lon="6.79237">
        <ele>2271.72400128</ele>
        <time>2013-09-01T07:16:18.330Z</time>
      </trkpt>
      <trkpt lat="45.74393" lon="6.7925">
        <ele>2270.12400128</ele>
        <time>2013-09-01T07:16:22.330Z</time>
      </trkpt>
      <trkpt lat="45.74389" lon="6.79266">
        <ele>2268.12400128</ele>
        <time>2013-09-01T07:16:27.330Z</time>
      </trkpt>
      <trkpt lat="45.74385" lon="6.79278">
        <ele>2266.92400128</ele>
        <time>2013-09-01T07:16:30.330Z</time>
      </trkpt>
      <trkpt lat="45.7438" lon="6.79289">
        <ele>2265.72400128</ele>
        <time>2013-09-01T07:16:33.330Z</time>
      </trkpt>
      <trkpt lat="45.74372" lon="6.79298">
        <ele>2264.52400128</ele>
        <time>2013-09-01T07:16:36.330Z</time>
      </trkpt>
      <trkpt lat="45.74361" lon="6.793">
        <ele>2264</ele>
        <time>2013-09-01T07:16:40.330Z</time>
      </trkpt>
      <trkpt lat="45.74353" lon="6.79301">
        <ele>2264</ele>
        <time>2013-09-01T07:16:43.330Z</time>
      </trkpt>
      <trkpt lat="45.74351" lon="6.79316">
        <ele>2263.86200064</ele>
        <time>2013-09-01T07:16:48.330Z</time>
      </trkpt>
      <trkpt lat="45.74352" lon="6.79329">
        <ele>2263.06200064</ele>
        <time>2013-09-01T07:16:52.330Z</time>
      </trkpt>
      <trkpt lat="45.74344" lon="6.79329">
        <ele>2262.46200064</ele>
        <time>2013-09-01T07:16:55.330Z</time>
      </trkpt>
      <trkpt lat="45.74335" lon="6.79333">
        <ele>2260.3100032</ele>
        <time>2013-09-01T07:16:59.330Z</time>
      </trkpt>
      <trkpt lat="45.74324" lon="6.79334">
        <ele>2256.3100032</ele>
        <time>2013-09-01T07:17:03.330Z</time>
      </trkpt>
      <trkpt lat="45.74317" lon="6.79329">
        <ele>2253.3100032</ele>
        <time>2013-09-01T07:17:06.330Z</time>
      </trkpt>
      <trkpt lat="45.74308" lon="6.79323">
        <ele>2250.11700224</ele>
        <time>2013-09-01T07:17:10.330Z</time>
      </trkpt>
      <trkpt lat="45.743" lon="6.79316">
        <ele>2247.31700224</ele>
        <time>2013-09-01T07:17:14.330Z</time>
      </trkpt>
      <trkpt lat="45.74296" lon="6.79299">
        <ele>2244.81099904</ele>
        <time>2013-09-01T07:17:18.270Z</time>
      </trkpt>
      <trkpt lat="45.74285" lon="6.79296">
        <ele>2242.41099904</ele>
        <time>2013-09-01T07:17:26.270Z</time>
      </trkpt>
      <trkpt lat="45.74276" lon="6.79294">
        <ele>2240.92400128</ele>
        <time>2013-09-01T07:17:30.330Z</time>
      </trkpt>
      <trkpt lat="45.74271" lon="6.79286">
        <ele>2237.53100032</ele>
        <time>2013-09-01T07:17:42.330Z</time>
      </trkpt>
      <trkpt lat="45.74261" lon="6.79283">
        <ele>2236.83900032</ele>
        <time>2013-09-01T07:17:49.250Z</time>
      </trkpt>
      <trkpt lat="45.74253" lon="6.79271">
        <ele>2236.448</ele>
        <time>2013-09-01T07:17:53.160Z</time>
      </trkpt>
      <trkpt lat="45.74245" lon="6.79263">
        <ele>2236.048</ele>
        <time>2013-09-01T07:17:57.160Z</time>
      </trkpt>
      <trkpt lat="45.74236" lon="6.79258">
        <ele>2233.1422851</ele>
        <time>2013-09-01T07:18:01.230Z</time>
      </trkpt>
      <trkpt lat="45.74227" lon="6.79249">
        <ele>2229.9582044842</ele>
        <time>2013-09-01T07:18:05.230Z</time>
      </trkpt>
      <trkpt lat="45.74219" lon="6.7924">
        <ele>2226.6613069632</ele>
        <time>2013-09-01T07:18:09.170Z</time>
      </trkpt>
      <trkpt lat="45.74211" lon="6.79234">
        <ele>2223.0432176745</ele>
        <time>2013-09-01T07:18:13.170Z</time>
      </trkpt>
      <trkpt lat="45.74205" lon="6.79229">
        <ele>2220.329650708</ele>
        <time>2013-09-01T07:18:16.170Z</time>
      </trkpt>
      <trkpt lat="45.74198" lon="6.79216">
        <ele>2217.22900224</ele>
        <time>2013-09-01T07:18:20.170Z</time>
      </trkpt>
      <trkpt lat="45.74193" lon="6.79203">
        <ele>2214.42900224</ele>
        <time>2013-09-01T07:18:24.170Z</time>
      </trkpt>
      <trkpt lat="45.74197" lon="6.79193">
        <ele>2212.32900224</ele>
        <time>2013-09-01T07:18:27.170Z</time>
      </trkpt>
      <trkpt lat="45.74196" lon="6.79176">
        <ele>2208.78699776</ele>
        <time>2013-09-01T07:18:32.230Z</time>
      </trkpt>
      <trkpt lat="45.74193" lon="6.79162">
        <ele>2205.98699776</ele>
        <time>2013-09-01T07:18:36.230Z</time>
      </trkpt>
      <trkpt lat="45.74192" lon="6.7915">
        <ele>2203.96399872</ele>
        <time>2013-09-01T07:18:40.230Z</time>
      </trkpt>
      <trkpt lat="45.74191" lon="6.7914">
        <ele>2201</ele>
        <time>2013-09-01T07:18:48.170Z</time>
      </trkpt>
      <trkpt lat="45.74184" lon="6.79135">
        <ele>2201</ele>
        <time>2013-09-01T07:18:54.170Z</time>
      </trkpt>
      <trkpt lat="45.74178" lon="6.79128">
        <ele>2200.94099968</ele>
        <time>2013-09-01T07:18:58.230Z</time>
      </trkpt>
      <trkpt lat="45.74172" lon="6.79121">
        <ele>2200.64099968</ele>
        <time>2013-09-01T07:19:01.230Z</time>
      </trkpt>
      <trkpt lat="45.74168" lon="6.79112">
        <ele>2200.34099968</ele>
        <time>2013-09-01T07:19:04.230Z</time>
      </trkpt>
      <trkpt lat="45.74165" lon="6.79098">
        <ele>2199.88199936</ele>
        <time>2013-09-01T07:19:08.230Z</time>
      </trkpt>
      <trkpt lat="45.74162" lon="6.79088">
        <ele>2199.28199936</ele>
        <time>2013-09-01T07:19:11.230Z</time>
      </trkpt>
      <trkpt lat="45.74158" lon="6.79079">
        <ele>2198.68199936</ele>
        <time>2013-09-01T07:19:14.230Z</time>
      </trkpt>
      <trkpt lat="45.74152" lon="6.79064">
        <ele>2196.77600256</ele>
        <time>2013-09-01T07:19:19.170Z</time>
      </trkpt>
      <trkpt lat="45.74148" lon="6.79049">
        <ele>2193.57600256</ele>
        <time>2013-09-01T07:19:23.170Z</time>
      </trkpt>
      <trkpt lat="45.74144" lon="6.79032">
        <ele>2189.71799808</ele>
        <time>2013-09-01T07:19:28.110Z</time>
      </trkpt>
      <trkpt lat="45.74142" lon="6.79017">
        <ele>2187.31799808</ele>
        <time>2013-09-01T07:19:32.110Z</time>
      </trkpt>
      <trkpt lat="45.74142" lon="6.79001">
        <ele>2184.91799808</ele>
        <time>2013-09-01T07:19:36.110Z</time>
      </trkpt>
      <trkpt lat="45.7414" lon="6.7899">
        <ele>2183.52299904</ele>
        <time>2013-09-01T07:19:39.230Z</time>
      </trkpt>
      <trkpt lat="45.74136" lon="6.78981">
        <ele>2182.62299904</ele>
        <time>2013-09-01T07:19:42.230Z</time>
      </trkpt>
      <trkpt lat="45.74131" lon="6.78973">
        <ele>2181.72299904</ele>
        <time>2013-09-01T07:19:45.230Z</time>
      </trkpt>
      <trkpt lat="45.74125" lon="6.78966">
        <ele>2180.79599872</ele>
        <time>2013-09-01T07:19:48.150Z</time>
      </trkpt>
      <trkpt lat="45.7412" lon="6.78957">
        <ele>2179.59599872</ele>
        <time>2013-09-01T07:19:51.150Z</time>
      </trkpt>
      <trkpt lat="45.74115" lon="6.78948">
        <ele>2178.39599872</ele>
        <time>2013-09-01T07:19:54.150Z</time>
      </trkpt>
      <trkpt lat="45.7411" lon="6.78939">
        <ele>2177.19599872</ele>
        <time>2013-09-01T07:19:57.150Z</time>
      </trkpt>
      <trkpt lat="45.74104" lon="6.78933">
        <ele>2176.22299904</ele>
        <time>2013-09-01T07:20:00.230Z</time>
      </trkpt>
      <trkpt lat="45.74097" lon="6.78928">
        <ele>2175.26299904</ele>
        <time>2013-09-01T07:20:03.430Z</time>
      </trkpt>
      <trkpt lat="45.74089" lon="6.78925">
        <ele>2174.12299904</ele>
        <time>2013-09-01T07:20:07.230Z</time>
      </trkpt>
      <trkpt lat="45.7408" lon="6.78923">
        <ele>2173.64099968</ele>
        <time>2013-09-01T07:20:11.230Z</time>
      </trkpt>
      <trkpt lat="45.74072" lon="6.78919">
        <ele>2173.34099968</ele>
        <time>2013-09-01T07:20:14.230Z</time>
      </trkpt>
      <trkpt lat="45.74064" lon="6.7891">
        <ele>2172.94700032</ele>
        <time>2013-09-01T07:20:18.170Z</time>
      </trkpt>
      <trkpt lat="45.74054" lon="6.78908">
        <ele>2172.44700032</ele>
        <time>2013-09-01T07:20:23.170Z</time>
      </trkpt>
      <trkpt lat="45.74046" lon="6.78918">
        <ele>2170.77600256</ele>
        <time>2013-09-01T07:20:29.170Z</time>
      </trkpt>
      <trkpt lat="45.74037" lon="6.78916">
        <ele>2166.77600256</ele>
        <time>2013-09-01T07:20:34.170Z</time>
      </trkpt>
      <trkpt lat="45.74027" lon="6.78914">
        <ele>2162.88</ele>
        <time>2013-09-01T07:20:39.240Z</time>
      </trkpt>
      <trkpt lat="45.74017" lon="6.78918">
        <ele>2160.08699776</ele>
        <time>2013-09-01T07:20:43.230Z</time>
      </trkpt>
      <trkpt lat="45.74005" lon="6.78914">
        <ele>2157.28699776</ele>
        <time>2013-09-01T07:20:47.230Z</time>
      </trkpt>
      <trkpt lat="45.73994" lon="6.78916">
        <ele>2156.0928847431</ele>
        <time>2013-09-01T07:20:52.230Z</time>
      </trkpt>
      <trkpt lat="45.73985" lon="6.78924">
        <ele>2155.1047424506</ele>
        <time>2013-09-01T07:20:57.230Z</time>
      </trkpt>
      <trkpt lat="45.73978" lon="6.78935">
        <ele>2153.6690141933</ele>
        <time>2013-09-01T07:21:02.170Z</time>
      </trkpt>
      <trkpt lat="45.73969" lon="6.78935">
        <ele>2152</ele>
        <time>2013-09-01T07:21:16.230Z</time>
      </trkpt>
      <trkpt lat="45.73962" lon="6.78924">
        <ele>2152</ele>
        <time>2013-09-01T07:21:21.230Z</time>
      </trkpt>
      <trkpt lat="45.73959" lon="6.78908">
        <ele>2152</ele>
        <time>2013-09-01T07:21:26.230Z</time>
      </trkpt>
      <trkpt lat="45.73957" lon="6.78892">
        <ele>2152</ele>
        <time>2013-09-01T07:21:31.230Z</time>
      </trkpt>
      <trkpt lat="45.73953" lon="6.78878">
        <ele>2152</ele>
        <time>2013-09-01T07:21:36.230Z</time>
      </trkpt>
      <trkpt lat="45.73949" lon="6.78862">
        <ele>2152.91800064</ele>
        <time>2013-09-01T07:21:42.230Z</time>
      </trkpt>
      <trkpt lat="45.73943" lon="6.78849">
        <ele>2153.91800064</ele>
        <time>2013-09-01T07:21:47.230Z</time>
      </trkpt>
      <trkpt lat="45.73937" lon="6.78843">
        <ele>2154</ele>
        <time>2013-09-01T07:21:50.230Z</time>
      </trkpt>
      <trkpt lat="45.73936" lon="6.78829">
        <ele>2154</ele>
        <time>2013-09-01T07:21:54.230Z</time>
      </trkpt>
      <trkpt lat="45.73939" lon="6.78812">
        <ele>2154</ele>
        <time>2013-09-01T07:21:59.230Z</time>
      </trkpt>
      <trkpt lat="45.73935" lon="6.78797">
        <ele>2154</ele>
        <time>2013-09-01T07:22:05.230Z</time>
      </trkpt>
      <trkpt lat="45.73928" lon="6.78785">
        <ele>2156.45299968</ele>
        <time>2013-09-01T07:22:22.170Z</time>
      </trkpt>
      <trkpt lat="45.73928" lon="6.78781">
        <ele>2157</ele>
        <time>2013-09-01T07:22:37.170Z</time>
      </trkpt>
      <trkpt lat="45.73924" lon="6.78777">
        <ele>2158</ele>
        <time>2013-09-01T07:22:54.270Z</time>
      </trkpt>
      <trkpt lat="45.7392" lon="6.7877">
        <ele>2157.13699968</ele>
        <time>2013-09-01T07:23:06.270Z</time>
      </trkpt>
      <trkpt lat="45.73913" lon="6.78754">
        <ele>2157</ele>
        <time>2013-09-01T07:23:44.330Z</time>
      </trkpt>
      <trkpt lat="45.73906" lon="6.78742">
        <ele>2156.8230583856</ele>
        <time>2013-09-01T07:23:48.100Z</time>
      </trkpt>
      <trkpt lat="45.73902" lon="6.78727">
        <ele>2154.8008130397</ele>
        <time>2013-09-01T07:23:52.100Z</time>
      </trkpt>
      <trkpt lat="45.73902" lon="6.78715">
        <ele>2153.2841225591</ele>
        <time>2013-09-01T07:23:55.100Z</time>
      </trkpt>
      <trkpt lat="45.73901" lon="6.78701">
        <ele>2152</ele>
        <time>2013-09-01T07:23:59.170Z</time>
      </trkpt>
      <trkpt lat="45.73901" lon="6.78684">
        <ele>2152</ele>
        <time>2013-09-01T07:24:03.170Z</time>
      </trkpt>
      <trkpt lat="45.739" lon="6.78673">
        <ele>2152</ele>
        <time>2013-09-01T07:24:06.170Z</time>
      </trkpt>
      <trkpt lat="45.7389" lon="6.78661">
        <ele>2150.18699776</ele>
        <time>2013-09-01T07:24:10.230Z</time>
      </trkpt>
      <trkpt lat="45.73882" lon="6.78656">
        <ele>2147.38699776</ele>
        <time>2013-09-01T07:24:14.230Z</time>
      </trkpt>
      <trkpt lat="45.73875" lon="6.7865">
        <ele>2144.52799744</ele>
        <time>2013-09-01T07:24:18.230Z</time>
      </trkpt>
      <trkpt lat="45.7387" lon="6.78637">
        <ele>2140.52799744</ele>
        <time>2013-09-01T07:24:23.230Z</time>
      </trkpt>
      <trkpt lat="45.73865" lon="6.78631">
        <ele>2137.32799744</ele>
        <time>2013-09-01T07:24:27.230Z</time>
      </trkpt>
      <trkpt lat="45.73859" lon="6.78626">
        <ele>2135.56399872</ele>
        <time>2013-09-01T07:24:31.230Z</time>
      </trkpt>
      <trkpt lat="45.7385" lon="6.78623">
        <ele>2133.96399872</ele>
        <time>2013-09-01T07:24:35.230Z</time>
      </trkpt>
      <trkpt lat="45.73845" lon="6.78611">
        <ele>2131.7049984</ele>
        <time>2013-09-01T07:24:40.230Z</time>
      </trkpt>
      <trkpt lat="45.73842" lon="6.78598">
        <ele>2129.2049984</ele>
        <time>2013-09-01T07:24:45.230Z</time>
      </trkpt>
      <trkpt lat="45.73833" lon="6.78594">
        <ele>2127.04599808</ele>
        <time>2013-09-01T07:24:49.230Z</time>
      </trkpt>
      <trkpt lat="45.73825" lon="6.78591">
        <ele>2124.64599808</ele>
        <time>2013-09-01T07:24:53.230Z</time>
      </trkpt>
      <trkpt lat="45.73817" lon="6.7859">
        <ele>2122.84599808</ele>
        <time>2013-09-01T07:24:56.230Z</time>
      </trkpt>
      <trkpt lat="45.73809" lon="6.78591">
        <ele>2121.08200192</ele>
        <time>2013-09-01T07:24:59.170Z</time>
      </trkpt>
      <trkpt lat="45.73801" lon="6.78586">
        <ele>2119.28200192</ele>
        <time>2013-09-01T07:25:02.170Z</time>
      </trkpt>
      <trkpt lat="45.73794" lon="6.78583">
        <ele>2117.48200192</ele>
        <time>2013-09-01T07:25:05.170Z</time>
      </trkpt>
      <trkpt lat="45.73787" lon="6.7858">
        <ele>2115.52599808</ele>
        <time>2013-09-01T07:25:08.430Z</time>
      </trkpt>
      <trkpt lat="45.7378" lon="6.78576">
        <ele>2113.84599808</ele>
        <time>2013-09-01T07:25:11.230Z</time>
      </trkpt>
      <trkpt lat="45.73773" lon="6.78569">
        <ele>2112.04599808</ele>
        <time>2013-09-01T07:25:14.230Z</time>
      </trkpt>
      <trkpt lat="45.73764" lon="6.78559">
        <ele>2109.04599808</ele>
        <time>2013-09-01T07:25:19.230Z</time>
      </trkpt>
      <trkpt lat="45.73756" lon="6.7855">
        <ele>2106.64599808</ele>
        <time>2013-09-01T07:25:23.230Z</time>
      </trkpt>
      <trkpt lat="45.73749" lon="6.7854">
        <ele>2104.24599808</ele>
        <time>2013-09-01T07:25:27.230Z</time>
      </trkpt>
      <trkpt lat="45.73746" lon="6.78525">
        <ele>2102.56399872</ele>
        <time>2013-09-01T07:25:31.230Z</time>
      </trkpt>
      <trkpt lat="45.73739" lon="6.78513">
        <ele>2100.56399872</ele>
        <time>2013-09-01T07:25:36.230Z</time>
      </trkpt>
      <trkpt lat="45.73733" lon="6.78507">
        <ele>2098.96399872</ele>
        <time>2013-09-01T07:25:40.230Z</time>
      </trkpt>
      <trkpt lat="45.73725" lon="6.78503">
        <ele>2097.36399872</ele>
        <time>2013-09-01T07:25:44.230Z</time>
      </trkpt>
      <trkpt lat="45.73714" lon="6.785">
        <ele>2095.38800128</ele>
        <time>2013-09-01T07:25:49.170Z</time>
      </trkpt>
      <trkpt lat="45.73703" lon="6.78494">
        <ele>2093.38800128</ele>
        <time>2013-09-01T07:25:54.170Z</time>
      </trkpt>
      <trkpt lat="45.73693" lon="6.78487">
        <ele>2090.58800128</ele>
        <time>2013-09-01T07:26:01.170Z</time>
      </trkpt>
      <trkpt lat="45.73683" lon="6.78483">
        <ele>2088.58800128</ele>
        <time>2013-09-01T07:26:06.170Z</time>
      </trkpt>
      <trkpt lat="45.73675" lon="6.78472">
        <ele>2086.56399872</ele>
        <time>2013-09-01T07:26:11.230Z</time>
      </trkpt>
      <trkpt lat="45.73666" lon="6.78467">
        <ele>2084.56399872</ele>
        <time>2013-09-01T07:26:16.230Z</time>
      </trkpt>
      <trkpt lat="45.73656" lon="6.7847">
        <ele>2081.4475244689</ele>
        <time>2013-09-01T07:26:32.160Z</time>
      </trkpt>
      <trkpt lat="45.73644" lon="6.78466">
        <ele>2082</ele>
        <time>2013-09-01T07:26:39.160Z</time>
      </trkpt>
      <trkpt lat="45.73634" lon="6.78462">
        <ele>2082</ele>
        <time>2013-09-01T07:26:44.170Z</time>
      </trkpt>
      <trkpt lat="45.73625" lon="6.78455">
        <ele>2081.688</ele>
        <time>2013-09-01T07:26:49.200Z</time>
      </trkpt>
      <trkpt lat="45.73618" lon="6.78443">
        <ele>2080.688</ele>
        <time>2013-09-01T07:26:54.200Z</time>
      </trkpt>
      <trkpt lat="45.73607" lon="6.78441">
        <ele>2077.89599744</ele>
        <time>2013-09-01T07:27:00.270Z</time>
      </trkpt>
      <trkpt lat="45.73599" lon="6.78443">
        <ele>2074.69599744</ele>
        <time>2013-09-01T07:27:04.270Z</time>
      </trkpt>
      <trkpt lat="45.7359" lon="6.7844">
        <ele>2071.75200256</ele>
        <time>2013-09-01T07:27:08.260Z</time>
      </trkpt>
      <trkpt lat="45.73581" lon="6.7843">
        <ele>2070.15200256</ele>
        <time>2013-09-01T07:27:12.260Z</time>
      </trkpt>
      <trkpt lat="45.73573" lon="6.78419">
        <ele>2068.55200256</ele>
        <time>2013-09-01T07:27:16.260Z</time>
      </trkpt>
      <trkpt lat="45.7357" lon="6.78404">
        <ele>2065.84800256</ele>
        <time>2013-09-01T07:27:20.330Z</time>
      </trkpt>
      <trkpt lat="45.73567" lon="6.78389">
        <ele>2062.64800256</ele>
        <time>2013-09-01T07:27:24.330Z</time>
      </trkpt>
      <trkpt lat="45.73564" lon="6.78375">
        <ele>2059.6550016</ele>
        <time>2013-09-01T07:27:28.330Z</time>
      </trkpt>
      <trkpt lat="45.73561" lon="6.78361">
        <ele>2057.6550016</ele>
        <time>2013-09-01T07:27:32.330Z</time>
      </trkpt>
      <trkpt lat="45.73557" lon="6.78348">
        <ele>2055.6550016</ele>
        <time>2013-09-01T07:27:36.330Z</time>
      </trkpt>
      <trkpt lat="45.7355" lon="6.78339">
        <ele>2054.19300096</ele>
        <time>2013-09-01T07:27:40.330Z</time>
      </trkpt>
      <trkpt lat="45.73543" lon="6.78331">
        <ele>2052.99300096</ele>
        <time>2013-09-01T07:27:44.330Z</time>
      </trkpt>
      <trkpt lat="45.73535" lon="6.78321">
        <ele>2051.62199808</ele>
        <time>2013-09-01T07:27:48.270Z</time>
      </trkpt>
      <trkpt lat="45.73527" lon="6.78309">
        <ele>2048.62199808</ele>
        <time>2013-09-01T07:27:53.270Z</time>
      </trkpt>
      <trkpt lat="45.73518" lon="6.78299">
        <ele>2046.22199808</ele>
        <time>2013-09-01T07:27:57.270Z</time>
      </trkpt>
      <trkpt lat="45.73509" lon="6.78292">
        <ele>2044.52400128</ele>
        <time>2013-09-01T07:28:01.330Z</time>
      </trkpt>
      <trkpt lat="45.73499" lon="6.78287">
        <ele>2042.92400128</ele>
        <time>2013-09-01T07:28:05.330Z</time>
      </trkpt>
      <trkpt lat="45.73487" lon="6.78288">
        <ele>2041.1550016</ele>
        <time>2013-09-01T07:28:09.330Z</time>
      </trkpt>
      <trkpt lat="45.73477" lon="6.78286">
        <ele>2039.1550016</ele>
        <time>2013-09-01T07:28:13.330Z</time>
      </trkpt>
      <trkpt lat="45.73482" lon="6.78274">
        <ele>2035.52400128</ele>
        <time>2013-09-01T07:28:21.330Z</time>
      </trkpt>
      <trkpt lat="45.73492" lon="6.78265">
        <ele>2033.92400128</ele>
        <time>2013-09-01T07:28:25.330Z</time>
      </trkpt>
      <trkpt lat="45.73502" lon="6.7826">
        <ele>2032.32400128</ele>
        <time>2013-09-01T07:28:29.330Z</time>
      </trkpt>
      <trkpt lat="45.73511" lon="6.78258">
        <ele>2030.72400128</ele>
        <time>2013-09-01T07:28:33.330Z</time>
      </trkpt>
      <trkpt lat="45.73502" lon="6.78252">
        <ele>2027.14799872</ele>
        <time>2013-09-01T07:28:42.270Z</time>
      </trkpt>
      <trkpt lat="45.73491" lon="6.7825">
        <ele>2025.54799872</ele>
        <time>2013-09-01T07:28:46.270Z</time>
      </trkpt>
      <trkpt lat="45.73482" lon="6.78248">
        <ele>2024.34799872</ele>
        <time>2013-09-01T07:28:49.270Z</time>
      </trkpt>
      <trkpt lat="45.73472" lon="6.78244">
        <ele>2022.74799872</ele>
        <time>2013-09-01T07:28:53.270Z</time>
      </trkpt>
      <trkpt lat="45.73468" lon="6.78231">
        <ele>2020.74799872</ele>
        <time>2013-09-01T07:28:58.270Z</time>
      </trkpt>
      <trkpt lat="45.73478" lon="6.78227">
        <ele>2018.74799872</ele>
        <time>2013-09-01T07:29:03.270Z</time>
      </trkpt>
      <trkpt lat="45.73469" lon="6.78218">
        <ele>2016.1550016</ele>
        <time>2013-09-01T07:29:09.330Z</time>
      </trkpt>
      <trkpt lat="45.73478" lon="6.78209">
        <ele>2011.19402641</ele>
        <time>2013-09-01T07:29:19.260Z</time>
      </trkpt>
      <trkpt lat="45.73472" lon="6.78195">
        <ele>2007.7114446046</ele>
        <time>2013-09-01T07:29:26.260Z</time>
      </trkpt>
      <trkpt lat="45.73483" lon="6.78193">
        <ele>2005.1587919891</ele>
        <time>2013-09-01T07:29:32.270Z</time>
      </trkpt>
      <trkpt lat="45.73493" lon="6.78197">
        <ele>2003.5507523053</ele>
        <time>2013-09-01T07:29:36.270Z</time>
      </trkpt>
      <trkpt lat="45.73501" lon="6.78198">
        <ele>2002.34799872</ele>
        <time>2013-09-01T07:29:39.270Z</time>
      </trkpt>
      <trkpt lat="45.73509" lon="6.78199">
        <ele>2001.14799872</ele>
        <time>2013-09-01T07:29:42.270Z</time>
      </trkpt>
      <trkpt lat="45.73517" lon="6.78198">
        <ele>1999.94799872</ele>
        <time>2013-09-01T07:29:45.270Z</time>
      </trkpt>
      <trkpt lat="45.73525" lon="6.78198">
        <ele>1998.81099904</ele>
        <time>2013-09-01T07:29:48.270Z</time>
      </trkpt>
      <trkpt lat="45.73532" lon="6.78198">
        <ele>1997.91099904</ele>
        <time>2013-09-01T07:29:51.270Z</time>
      </trkpt>
      <trkpt lat="45.73542" lon="6.78197">
        <ele>1996.71099904</ele>
        <time>2013-09-01T07:29:55.270Z</time>
      </trkpt>
      <trkpt lat="45.73551" lon="6.78196">
        <ele>1995.32400128</ele>
        <time>2013-09-01T07:29:59.330Z</time>
      </trkpt>
      <trkpt lat="45.73562" lon="6.782">
        <ele>1993.72400128</ele>
        <time>2013-09-01T07:30:03.330Z</time>
      </trkpt>
      <trkpt lat="45.73573" lon="6.78205">
        <ele>1991.93100032</ele>
        <time>2013-09-01T07:30:08.330Z</time>
      </trkpt>
      <trkpt lat="45.73579" lon="6.78211">
        <ele>1991.63100032</ele>
        <time>2013-09-01T07:30:11.330Z</time>
      </trkpt>
      <trkpt lat="45.73586" lon="6.78217">
        <ele>1991.33100032</ele>
        <time>2013-09-01T07:30:14.330Z</time>
      </trkpt>
      <trkpt lat="45.7358" lon="6.78204">
        <ele>1987.58600192</ele>
        <time>2013-09-01T07:30:23.330Z</time>
      </trkpt>
      <trkpt lat="45.73572" lon="6.78195">
        <ele>1985.78600192</ele>
        <time>2013-09-01T07:30:26.330Z</time>
      </trkpt>
      <trkpt lat="45.73562" lon="6.78184">
        <ele>1983.6550016</ele>
        <time>2013-09-01T07:30:30.330Z</time>
      </trkpt>
      <trkpt lat="45.73553" lon="6.78177">
        <ele>1981.6550016</ele>
        <time>2013-09-01T07:30:34.330Z</time>
      </trkpt>
      <trkpt lat="45.73544" lon="6.7817">
        <ele>1979.72</ele>
        <time>2013-09-01T07:30:38.200Z</time>
      </trkpt>
      <trkpt lat="45.73535" lon="6.78162">
        <ele>1977.72</ele>
        <time>2013-09-01T07:30:42.200Z</time>
      </trkpt>
      <trkpt lat="45.73526" lon="6.78157">
        <ele>1975.72</ele>
        <time>2013-09-01T07:30:46.200Z</time>
      </trkpt>
      <trkpt lat="45.73517" lon="6.78149">
        <ele>1974.46200064</ele>
        <time>2013-09-01T07:30:50.330Z</time>
      </trkpt>
      <trkpt lat="45.73509" lon="6.7814">
        <ele>1973.66200064</ele>
        <time>2013-09-01T07:30:54.330Z</time>
      </trkpt>
      <trkpt lat="45.73499" lon="6.78132">
        <ele>1972.1550016</ele>
        <time>2013-09-01T07:30:59.330Z</time>
      </trkpt>
      <trkpt lat="45.73501" lon="6.78117">
        <ele>1969.6500032</ele>
        <time>2013-09-01T07:31:04.340Z</time>
      </trkpt>
      <trkpt lat="45.7351" lon="6.78111">
        <ele>1968.1550016</ele>
        <time>2013-09-01T07:31:07.330Z</time>
      </trkpt>
      <trkpt lat="45.7352" lon="6.78112">
        <ele>1967.19300096</ele>
        <time>2013-09-01T07:31:10.330Z</time>
      </trkpt>
      <trkpt lat="45.73532" lon="6.78116">
        <ele>1965.99300096</ele>
        <time>2013-09-01T07:31:14.330Z</time>
      </trkpt>
      <trkpt lat="45.73543" lon="6.7812">
        <ele>1964.6550016</ele>
        <time>2013-09-01T07:31:18.330Z</time>
      </trkpt>
      <trkpt lat="45.73554" lon="6.78124">
        <ele>1962.6550016</ele>
        <time>2013-09-01T07:31:22.330Z</time>
      </trkpt>
      <trkpt lat="45.73565" lon="6.78126">
        <ele>1960.6550016</ele>
        <time>2013-09-01T07:31:26.330Z</time>
      </trkpt>
      <trkpt lat="45.73576" lon="6.78128">
        <ele>1958.7249984</ele>
        <time>2013-09-01T07:31:30.190Z</time>
      </trkpt>
      <trkpt lat="45.73586" lon="6.7813">
        <ele>1956.7249984</ele>
        <time>2013-09-01T07:31:34.190Z</time>
      </trkpt>
      <trkpt lat="45.73596" lon="6.78132">
        <ele>1954.74799872</ele>
        <time>2013-09-01T07:31:38.270Z</time>
      </trkpt>
      <trkpt lat="45.73606" lon="6.78132">
        <ele>1953.14799872</ele>
        <time>2013-09-01T07:31:42.270Z</time>
      </trkpt>
      <trkpt lat="45.73617" lon="6.78134">
        <ele>1951.54799872</ele>
        <time>2013-09-01T07:31:46.270Z</time>
      </trkpt>
      <trkpt lat="45.73626" lon="6.78137">
        <ele>1950.19300096</ele>
        <time>2013-09-01T07:31:50.330Z</time>
      </trkpt>
      <trkpt lat="45.73635" lon="6.78141">
        <ele>1948.99300096</ele>
        <time>2013-09-01T07:31:54.330Z</time>
      </trkpt>
      <trkpt lat="45.73642" lon="6.78141">
        <ele>1948.09300096</ele>
        <time>2013-09-01T07:31:57.330Z</time>
      </trkpt>
      <trkpt lat="45.73649" lon="6.7814">
        <ele>1947.1938068951</ele>
        <time>2013-09-01T07:32:00.330Z</time>
      </trkpt>
      <trkpt lat="45.73656" lon="6.7814">
        <ele>1946.2947057086</ele>
        <time>2013-09-01T07:32:03.330Z</time>
      </trkpt>
      <trkpt lat="45.73663" lon="6.7814">
        <ele>1945.3956045221</ele>
        <time>2013-09-01T07:32:06.330Z</time>
      </trkpt>
      <trkpt lat="45.73658" lon="6.78129">
        <ele>1943.9322709163</ele>
        <time>2013-09-01T07:32:10.330Z</time>
      </trkpt>
      <trkpt lat="45.73649" lon="6.7812">
        <ele>1942.7370517928</ele>
        <time>2013-09-01T07:32:13.330Z</time>
      </trkpt>
      <trkpt lat="45.73643" lon="6.78113">
        <ele>1941.5418326693</ele>
        <time>2013-09-01T07:32:16.330Z</time>
      </trkpt>
      <trkpt lat="45.73638" lon="6.78104">
        <ele>1940.20602719</ele>
        <time>2013-09-01T07:32:19.270Z</time>
      </trkpt>
      <trkpt lat="45.73631" lon="6.78093">
        <ele>1938.1959775852</ele>
        <time>2013-09-01T07:32:23.270Z</time>
      </trkpt>
      <trkpt lat="45.73624" lon="6.78081">
        <ele>1936.1859279804</ele>
        <time>2013-09-01T07:32:27.270Z</time>
      </trkpt>
      <trkpt lat="45.73617" lon="6.7807">
        <ele>1934.91099904</ele>
        <time>2013-09-01T07:32:31.270Z</time>
      </trkpt>
      <trkpt lat="45.73608" lon="6.7806">
        <ele>1933.71099904</ele>
        <time>2013-09-01T07:32:35.270Z</time>
      </trkpt>
      <trkpt lat="45.73599" lon="6.78048">
        <ele>1931.6849984</ele>
        <time>2013-09-01T07:32:40.270Z</time>
      </trkpt>
      <trkpt lat="45.73594" lon="6.78034">
        <ele>1929.6849984</ele>
        <time>2013-09-01T07:32:44.270Z</time>
      </trkpt>
      <trkpt lat="45.73594" lon="6.78017">
        <ele>1927.87399936</ele>
        <time>2013-09-01T07:32:48.270Z</time>
      </trkpt>
      <trkpt lat="45.73591" lon="6.78005">
        <ele>1927.07399936</ele>
        <time>2013-09-01T07:32:52.270Z</time>
      </trkpt>
      <trkpt lat="45.73581" lon="6.77996">
        <ele>1925.74799872</ele>
        <time>2013-09-01T07:32:58.270Z</time>
      </trkpt>
      <trkpt lat="45.73573" lon="6.77987">
        <ele>1923.74799872</ele>
        <time>2013-09-01T07:33:03.270Z</time>
      </trkpt>
      <trkpt lat="45.73566" lon="6.77975">
        <ele>1921.72400128</ele>
        <time>2013-09-01T07:33:08.330Z</time>
      </trkpt>
      <trkpt lat="45.73562" lon="6.77962">
        <ele>1919.72400128</ele>
        <time>2013-09-01T07:33:13.330Z</time>
      </trkpt>
      <trkpt lat="45.73558" lon="6.7795">
        <ele>1918.12400128</ele>
        <time>2013-09-01T07:33:17.330Z</time>
      </trkpt>
      <trkpt lat="45.73554" lon="6.77937">
        <ele>1916.59300096</ele>
        <time>2013-09-01T07:33:22.330Z</time>
      </trkpt>
      <trkpt lat="45.73548" lon="6.77926">
        <ele>1915.39300096</ele>
        <time>2013-09-01T07:33:26.330Z</time>
      </trkpt>
      <trkpt lat="45.73558" lon="6.77919">
        <ele>1912.41099904</ele>
        <time>2013-09-01T07:33:36.270Z</time>
      </trkpt>
      <trkpt lat="45.73566" lon="6.77921">
        <ele>1911.33199872</ele>
        <time>2013-09-01T07:33:39.310Z</time>
      </trkpt>
      <trkpt lat="45.73574" lon="6.77924">
        <ele>1910.13199872</ele>
        <time>2013-09-01T07:33:42.310Z</time>
      </trkpt>
      <trkpt lat="45.73581" lon="6.77926">
        <ele>1908.93199872</ele>
        <time>2013-09-01T07:33:45.310Z</time>
      </trkpt>
      <trkpt lat="45.73588" lon="6.77925">
        <ele>1907.72400128</ele>
        <time>2013-09-01T07:33:48.330Z</time>
      </trkpt>
      <trkpt lat="45.73596" lon="6.77927">
        <ele>1906.52400128</ele>
        <time>2013-09-01T07:33:51.330Z</time>
      </trkpt>
      <trkpt lat="45.73604" lon="6.77929">
        <ele>1905.32400128</ele>
        <time>2013-09-01T07:33:54.330Z</time>
      </trkpt>
      <trkpt lat="45.7361" lon="6.77933">
        <ele>1904.12400128</ele>
        <time>2013-09-01T07:33:57.330Z</time>
      </trkpt>
      <trkpt lat="45.73611" lon="6.77916">
        <ele>1897.688</ele>
        <time>2013-09-01T07:34:09.200Z</time>
      </trkpt>
      <trkpt lat="45.73608" lon="6.77899">
        <ele>1896.688</ele>
        <time>2013-09-01T07:34:14.200Z</time>
      </trkpt>
      <trkpt lat="45.73605" lon="6.77885">
        <ele>1895.51099904</ele>
        <time>2013-09-01T07:34:19.270Z</time>
      </trkpt>
      <trkpt lat="45.73597" lon="6.77875">
        <ele>1894.31099904</ele>
        <time>2013-09-01T07:34:23.270Z</time>
      </trkpt>
      <trkpt lat="45.73592" lon="6.77859">
        <ele>1892.72400128</ele>
        <time>2013-09-01T07:34:28.330Z</time>
      </trkpt>
      <trkpt lat="45.73583" lon="6.77849">
        <ele>1890.72400128</ele>
        <time>2013-09-01T07:34:33.330Z</time>
      </trkpt>
      <trkpt lat="45.73577" lon="6.77834">
        <ele>1888.81099904</ele>
        <time>2013-09-01T07:34:38.270Z</time>
      </trkpt>
      <trkpt lat="45.73574" lon="6.77818">
        <ele>1887.01099904</ele>
        <time>2013-09-01T07:34:44.270Z</time>
      </trkpt>
      <trkpt lat="45.73565" lon="6.7781">
        <ele>1886</ele>
        <time>2013-09-01T07:34:49.330Z</time>
      </trkpt>
      <trkpt lat="45.73555" lon="6.77812">
        <ele>1886</ele>
        <time>2013-09-01T07:34:53.330Z</time>
      </trkpt>
      <trkpt lat="45.73545" lon="6.77816">
        <ele>1885.9313435801</ele>
        <time>2013-09-01T07:34:58.330Z</time>
      </trkpt>
      <trkpt lat="45.73536" lon="6.77824">
        <ele>1885.4338309839</ele>
        <time>2013-09-01T07:35:03.330Z</time>
      </trkpt>
      <trkpt lat="45.73529" lon="6.77836">
        <ele>1884.7088321285</ele>
        <time>2013-09-01T07:35:08.270Z</time>
      </trkpt>
      <trkpt lat="45.73521" lon="6.77846">
        <ele>1882.1987919679</ele>
        <time>2013-09-01T07:35:13.270Z</time>
      </trkpt>
      <trkpt lat="45.7351" lon="6.7785">
        <ele>1880</ele>
        <time>2013-09-01T07:35:19.270Z</time>
      </trkpt>
      <trkpt lat="45.73502" lon="6.77841">
        <ele>1880</ele>
        <time>2013-09-01T07:35:27.270Z</time>
      </trkpt>
      <trkpt lat="45.73501" lon="6.77825">
        <ele>1881.53799936</ele>
        <time>2013-09-01T07:35:35.330Z</time>
      </trkpt>
      <trkpt lat="45.73502" lon="6.77809">
        <ele>1883.8449984</ele>
        <time>2013-09-01T07:35:41.330Z</time>
      </trkpt>
      <trkpt lat="45.73492" lon="6.77798">
        <ele>1887</ele>
        <time>2013-09-01T07:35:48.330Z</time>
      </trkpt>
      <trkpt lat="45.73485" lon="6.77788">
        <ele>1887</ele>
        <time>2013-09-01T07:35:52.330Z</time>
      </trkpt>
      <trkpt lat="45.73476" lon="6.77781">
        <ele>1887</ele>
        <time>2013-09-01T07:35:56.330Z</time>
      </trkpt>
      <trkpt lat="45.73466" lon="6.77774">
        <ele>1886.46200064</ele>
        <time>2013-09-01T07:36:00.330Z</time>
      </trkpt>
      <trkpt lat="45.73456" lon="6.77769">
        <ele>1885.66200064</ele>
        <time>2013-09-01T07:36:04.330Z</time>
      </trkpt>
      <trkpt lat="45.73445" lon="6.77762">
        <ele>1884.93100032</ele>
        <time>2013-09-01T07:36:08.330Z</time>
      </trkpt>
      <trkpt lat="45.73436" lon="6.77752">
        <ele>1884.53100032</ele>
        <time>2013-09-01T07:36:12.330Z</time>
      </trkpt>
      <trkpt lat="45.73428" lon="6.77743">
        <ele>1884.13100032</ele>
        <time>2013-09-01T07:36:16.330Z</time>
      </trkpt>
      <trkpt lat="45.73417" lon="6.77742">
        <ele>1883.73699968</ele>
        <time>2013-09-01T07:36:20.270Z</time>
      </trkpt>
      <trkpt lat="45.73406" lon="6.77738">
        <ele>1883.33699968</ele>
        <time>2013-09-01T07:36:24.270Z</time>
      </trkpt>
      <trkpt lat="45.73395" lon="6.77734">
        <ele>1882.87800064</ele>
        <time>2013-09-01T07:36:28.250Z</time>
      </trkpt>
      <trkpt lat="45.73384" lon="6.77729">
        <ele>1882.07800064</ele>
        <time>2013-09-01T07:36:32.250Z</time>
      </trkpt>
      <trkpt lat="45.73374" lon="6.77724">
        <ele>1881.27800064</ele>
        <time>2013-09-01T07:36:36.250Z</time>
      </trkpt>
      <trkpt lat="45.73364" lon="6.77722">
        <ele>1879.92400128</ele>
        <time>2013-09-01T07:36:40.330Z</time>
      </trkpt>
      <trkpt lat="45.73352" lon="6.77718">
        <ele>1878.32400128</ele>
        <time>2013-09-01T07:36:44.330Z</time>
      </trkpt>
      <trkpt lat="45.73344" lon="6.77712">
        <ele>1877.12400128</ele>
        <time>2013-09-01T07:36:47.330Z</time>
      </trkpt>
      <trkpt lat="45.73335" lon="6.77699">
        <ele>1877</ele>
        <time>2013-09-01T07:36:51.330Z</time>
      </trkpt>
      <trkpt lat="45.73328" lon="6.77684">
        <ele>1877</ele>
        <time>2013-09-01T07:36:55.330Z</time>
      </trkpt>
      <trkpt lat="45.73319" lon="6.77672">
        <ele>1876.66200064</ele>
        <time>2013-09-01T07:36:59.330Z</time>
      </trkpt>
      <trkpt lat="45.7331" lon="6.77662">
        <ele>1875.86200064</ele>
        <time>2013-09-01T07:37:03.330Z</time>
      </trkpt>
      <trkpt lat="45.73302" lon="6.77652">
        <ele>1875.06200064</ele>
        <time>2013-09-01T07:37:07.330Z</time>
      </trkpt>
      <trkpt lat="45.73296" lon="6.7764">
        <ele>1875</ele>
        <time>2013-09-01T07:37:11.330Z</time>
      </trkpt>
      <trkpt lat="45.73291" lon="6.77632">
        <ele>1875</ele>
        <time>2013-09-01T07:37:14.330Z</time>
      </trkpt>
      <trkpt lat="45.73286" lon="6.77624">
        <ele>1875</ele>
        <time>2013-09-01T07:37:17.330Z</time>
      </trkpt>
      <trkpt lat="45.73281" lon="6.77616">
        <ele>1874.46200064</ele>
        <time>2013-09-01T07:37:20.330Z</time>
      </trkpt>
      <trkpt lat="45.73276" lon="6.7761">
        <ele>1873.86200064</ele>
        <time>2013-09-01T07:37:23.330Z</time>
      </trkpt>
      <trkpt lat="45.73269" lon="6.77604">
        <ele>1873.26200064</ele>
        <time>2013-09-01T07:37:26.330Z</time>
      </trkpt>
      <trkpt lat="45.73264" lon="6.77595">
        <ele>1872.66200064</ele>
        <time>2013-09-01T07:37:29.330Z</time>
      </trkpt>
      <trkpt lat="45.73263" lon="6.77588">
        <ele>1872.26200064</ele>
        <time>2013-09-01T07:37:31.330Z</time>
      </trkpt>
      <trkpt lat="45.7326" lon="6.77577">
        <ele>1871.66200064</ele>
        <time>2013-09-01T07:37:34.330Z</time>
      </trkpt>
      <trkpt lat="45.73257" lon="6.77569">
        <ele>1871.26200064</ele>
        <time>2013-09-01T07:37:36.330Z</time>
      </trkpt>
      <trkpt lat="45.73252" lon="6.7756">
        <ele>1870.32400128</ele>
        <time>2013-09-01T07:37:39.330Z</time>
      </trkpt>
      <trkpt lat="45.73246" lon="6.7755">
        <ele>1869.12400128</ele>
        <time>2013-09-01T07:37:42.330Z</time>
      </trkpt>
      <trkpt lat="45.7324" lon="6.77542">
        <ele>1867.92400128</ele>
        <time>2013-09-01T07:37:45.330Z</time>
      </trkpt>
      <trkpt lat="45.73234" lon="6.77533">
        <ele>1866.7253743205</ele>
        <time>2013-09-01T07:37:48.330Z</time>
      </trkpt>
      <trkpt lat="45.73228" lon="6.77524">
        <ele>1865.5313440896</ele>
        <time>2013-09-01T07:37:51.330Z</time>
      </trkpt>
      <trkpt lat="45.73223" lon="6.77514">
        <ele>1864.3373138587</ele>
        <time>2013-09-01T07:37:54.330Z</time>
      </trkpt>
      <trkpt lat="45.73217" lon="6.77505">
        <ele>1863.1432836277</ele>
        <time>2013-09-01T07:37:57.330Z</time>
      </trkpt>
      <trkpt lat="45.7321" lon="6.77499">
        <ele>1862.2221088733</ele>
        <time>2013-09-01T07:38:00.270Z</time>
      </trkpt>
      <trkpt lat="45.73204" lon="6.77493">
        <ele>1861.3175865511</ele>
        <time>2013-09-01T07:38:03.270Z</time>
      </trkpt>
      <trkpt lat="45.73197" lon="6.77488">
        <ele>1860.413064229</ele>
        <time>2013-09-01T07:38:06.270Z</time>
      </trkpt>
      <trkpt lat="45.73189" lon="6.77485">
        <ele>1859.83699968</ele>
        <time>2013-09-01T07:38:09.270Z</time>
      </trkpt>
      <trkpt lat="45.7318" lon="6.77481">
        <ele>1859.53699968</ele>
        <time>2013-09-01T07:38:12.270Z</time>
      </trkpt>
      <trkpt lat="45.73172" lon="6.77477">
        <ele>1859.23699968</ele>
        <time>2013-09-01T07:38:15.270Z</time>
      </trkpt>
      <trkpt lat="45.73165" lon="6.77474">
        <ele>1858.87399936</ele>
        <time>2013-09-01T07:38:18.270Z</time>
      </trkpt>
      <trkpt lat="45.73157" lon="6.7747">
        <ele>1858.27399936</ele>
        <time>2013-09-01T07:38:21.270Z</time>
      </trkpt>
      <trkpt lat="45.7315" lon="6.77464">
        <ele>1857.67399936</ele>
        <time>2013-09-01T07:38:24.270Z</time>
      </trkpt>
      <trkpt lat="45.73144" lon="6.77457">
        <ele>1857.07399936</ele>
        <time>2013-09-01T07:38:27.270Z</time>
      </trkpt>
      <trkpt lat="45.73138" lon="6.77448">
        <ele>1855.6550016</ele>
        <time>2013-09-01T07:38:30.330Z</time>
      </trkpt>
      <trkpt lat="45.73132" lon="6.7744">
        <ele>1854.1550016</ele>
        <time>2013-09-01T07:38:33.330Z</time>
      </trkpt>
      <trkpt lat="45.73126" lon="6.7743">
        <ele>1852.6550016</ele>
        <time>2013-09-01T07:38:36.330Z</time>
      </trkpt>
      <trkpt lat="45.73121" lon="6.77421">
        <ele>1851.66200064</ele>
        <time>2013-09-01T07:38:39.330Z</time>
      </trkpt>
      <trkpt lat="45.73113" lon="6.77408">
        <ele>1850.86200064</ele>
        <time>2013-09-01T07:38:43.330Z</time>
      </trkpt>
      <trkpt lat="45.73106" lon="6.77396">
        <ele>1850.06200064</ele>
        <time>2013-09-01T07:38:47.330Z</time>
      </trkpt>
      <trkpt lat="45.73099" lon="6.77382">
        <ele>1849.63100032</ele>
        <time>2013-09-01T07:38:51.330Z</time>
      </trkpt>
      <trkpt lat="45.73093" lon="6.77372">
        <ele>1849.33100032</ele>
        <time>2013-09-01T07:38:54.330Z</time>
      </trkpt>
      <trkpt lat="45.73086" lon="6.77359">
        <ele>1848.6550016</ele>
        <time>2013-09-01T07:38:58.330Z</time>
      </trkpt>
      <trkpt lat="45.73078" lon="6.77347">
        <ele>1846.6550016</ele>
        <time>2013-09-01T07:39:02.330Z</time>
      </trkpt>
      <trkpt lat="45.73069" lon="6.77337">
        <ele>1844.6550016</ele>
        <time>2013-09-01T07:39:06.330Z</time>
      </trkpt>
      <trkpt lat="45.73059" lon="6.77329">
        <ele>1843.73699968</ele>
        <time>2013-09-01T07:39:10.270Z</time>
      </trkpt>
      <trkpt lat="45.7305" lon="6.77321">
        <ele>1843.33699968</ele>
        <time>2013-09-01T07:39:14.270Z</time>
      </trkpt>
      <trkpt lat="45.73042" lon="6.7731">
        <ele>1842.74799872</ele>
        <time>2013-09-01T07:39:18.270Z</time>
      </trkpt>
      <trkpt lat="45.73033" lon="6.773">
        <ele>1841.14799872</ele>
        <time>2013-09-01T07:39:22.270Z</time>
      </trkpt>
      <trkpt lat="45.73025" lon="6.77288">
        <ele>1839.54799872</ele>
        <time>2013-09-01T07:39:26.270Z</time>
      </trkpt>
      <trkpt lat="45.73019" lon="6.77274">
        <ele>1837.92400128</ele>
        <time>2013-09-01T07:39:30.330Z</time>
      </trkpt>
      <trkpt lat="45.73014" lon="6.77265">
        <ele>1836.72400128</ele>
        <time>2013-09-01T07:39:33.330Z</time>
      </trkpt>
      <trkpt lat="45.73008" lon="6.77257">
        <ele>1835.52400128</ele>
        <time>2013-09-01T07:39:36.330Z</time>
      </trkpt>
      <trkpt lat="45.73003" lon="6.77244">
        <ele>1834.73299968</ele>
        <time>2013-09-01T07:39:40.310Z</time>
      </trkpt>
      <trkpt lat="45.73001" lon="6.77234">
        <ele>1834.43299968</ele>
        <time>2013-09-01T07:39:43.310Z</time>
      </trkpt>
      <trkpt lat="45.73" lon="6.77221">
        <ele>1834.13299968</ele>
        <time>2013-09-01T07:39:46.310Z</time>
      </trkpt>
      <trkpt lat="45.73001" lon="6.77208">
        <ele>1833.1550016</ele>
        <time>2013-09-01T07:39:49.330Z</time>
      </trkpt>
      <trkpt lat="45.73001" lon="6.77195">
        <ele>1831.6500032</ele>
        <time>2013-09-01T07:39:52.340Z</time>
      </trkpt>
      <trkpt lat="45.73" lon="6.7718">
        <ele>1829.6550016</ele>
        <time>2013-09-01T07:39:56.330Z</time>
      </trkpt>
      <trkpt lat="45.73001" lon="6.77168">
        <ele>1828.51099904</ele>
        <time>2013-09-01T07:39:59.270Z</time>
      </trkpt>
      <trkpt lat="45.73" lon="6.77153">
        <ele>1827.31099904</ele>
        <time>2013-09-01T07:40:03.270Z</time>
      </trkpt>
      <trkpt lat="45.72995" lon="6.7714">
        <ele>1826.11099904</ele>
        <time>2013-09-01T07:40:07.270Z</time>
      </trkpt>
      <trkpt lat="45.72987" lon="6.77131">
        <ele>1825.63100032</ele>
        <time>2013-09-01T07:40:11.330Z</time>
      </trkpt>
      <trkpt lat="45.72977" lon="6.77122">
        <ele>1825.23100032</ele>
        <time>2013-09-01T07:40:15.330Z</time>
      </trkpt>
      <trkpt lat="45.72972" lon="6.77114">
        <ele>1824.6649984</ele>
        <time>2013-09-01T07:40:18.310Z</time>
      </trkpt>
      <trkpt lat="45.72964" lon="6.77101">
        <ele>1822.6649984</ele>
        <time>2013-09-01T07:40:22.310Z</time>
      </trkpt>
      <trkpt lat="45.72956" lon="6.77089">
        <ele>1820.6649984</ele>
        <time>2013-09-01T07:40:26.310Z</time>
      </trkpt>
      <trkpt lat="45.72947" lon="6.77081">
        <ele>1819.26200064</ele>
        <time>2013-09-01T07:40:31.330Z</time>
      </trkpt>
      <trkpt lat="45.72942" lon="6.77075">
        <ele>1819.87399936</ele>
        <time>2013-09-01T07:41:28.270Z</time>
      </trkpt>
      <trkpt lat="45.72936" lon="6.7707">
        <ele>1818.07399936</ele>
        <time>2013-09-01T07:41:37.270Z</time>
      </trkpt>
      <trkpt lat="45.72925" lon="6.77061">
        <ele>1817.26200064</ele>
        <time>2013-09-01T07:41:41.330Z</time>
      </trkpt>
      <trkpt lat="45.72916" lon="6.7705">
        <ele>1816.46200064</ele>
        <time>2013-09-01T07:41:45.330Z</time>
      </trkpt>
      <trkpt lat="45.72909" lon="6.77038">
        <ele>1815.83100032</ele>
        <time>2013-09-01T07:41:49.330Z</time>
      </trkpt>
      <trkpt lat="45.72901" lon="6.77026">
        <ele>1815.43100032</ele>
        <time>2013-09-01T07:41:53.330Z</time>
      </trkpt>
      <trkpt lat="45.72893" lon="6.77015">
        <ele>1815.03100032</ele>
        <time>2013-09-01T07:41:57.330Z</time>
      </trkpt>
      <trkpt lat="45.72885" lon="6.77002">
        <ele>1813.52400128</ele>
        <time>2013-09-01T07:42:01.330Z</time>
      </trkpt>
      <trkpt lat="45.72878" lon="6.76992">
        <ele>1812.32400128</ele>
        <time>2013-09-01T07:42:04.330Z</time>
      </trkpt>
      <trkpt lat="45.72868" lon="6.76983">
        <ele>1810.87399936</ele>
        <time>2013-09-01T07:42:08.270Z</time>
      </trkpt>
      <trkpt lat="45.72857" lon="6.76978">
        <ele>1810.07399936</ele>
        <time>2013-09-01T07:42:12.270Z</time>
      </trkpt>
      <trkpt lat="45.72846" lon="6.76975">
        <ele>1809.27399936</ele>
        <time>2013-09-01T07:42:16.270Z</time>
      </trkpt>
      <trkpt lat="45.72834" lon="6.76971">
        <ele>1807.11700224</ele>
        <time>2013-09-01T07:42:20.330Z</time>
      </trkpt>
      <trkpt lat="45.72826" lon="6.76965">
        <ele>1805.01700224</ele>
        <time>2013-09-01T07:42:23.330Z</time>
      </trkpt>
      <trkpt lat="45.72818" lon="6.76959">
        <ele>1802.91700224</ele>
        <time>2013-09-01T07:42:26.330Z</time>
      </trkpt>
      <trkpt lat="45.72806" lon="6.76956">
        <ele>1801.19300096</ele>
        <time>2013-09-01T07:42:30.330Z</time>
      </trkpt>
      <trkpt lat="45.72795" lon="6.76955">
        <ele>1799.99300096</ele>
        <time>2013-09-01T07:42:34.330Z</time>
      </trkpt>
      <trkpt lat="45.72784" lon="6.76953">
        <ele>1797.89300096</ele>
        <time>2013-09-01T07:42:41.330Z</time>
      </trkpt>
      <trkpt lat="45.72777" lon="6.76942">
        <ele>1796.69300096</ele>
        <time>2013-09-01T07:42:45.330Z</time>
      </trkpt>
      <trkpt lat="45.72768" lon="6.76931">
        <ele>1795.6752981673</ele>
        <time>2013-09-01T07:42:49.270Z</time>
      </trkpt>
      <trkpt lat="45.72759" lon="6.76923">
        <ele>1794.8784854183</ele>
        <time>2013-09-01T07:42:53.270Z</time>
      </trkpt>
      <trkpt lat="45.72749" lon="6.76912">
        <ele>1794.0737045418</ele>
        <time>2013-09-01T07:42:57.310Z</time>
      </trkpt>
      <trkpt lat="45.72745" lon="6.76908">
        <ele>1793.503013012</ele>
        <time>2013-09-01T07:42:59.330Z</time>
      </trkpt>
      <trkpt lat="45.72734" lon="6.769">
        <ele>1792.2981937349</ele>
        <time>2013-09-01T07:43:03.330Z</time>
      </trkpt>
      <trkpt lat="45.72723" lon="6.76896">
        <ele>1791.0933744578</ele>
        <time>2013-09-01T07:43:07.330Z</time>
      </trkpt>
      <trkpt lat="45.72717" lon="6.76885">
        <ele>1790.63100032</ele>
        <time>2013-09-01T07:43:11.330Z</time>
      </trkpt>
      <trkpt lat="45.72717" lon="6.7687">
        <ele>1790.23100032</ele>
        <time>2013-09-01T07:43:15.330Z</time>
      </trkpt>
      <trkpt lat="45.7272" lon="6.76855">
        <ele>1790.26899968</ele>
        <time>2013-09-01T07:43:20.330Z</time>
      </trkpt>
      <trkpt lat="45.72725" lon="6.7684">
        <ele>1790.76899968</ele>
        <time>2013-09-01T07:43:25.330Z</time>
      </trkpt>
      <trkpt lat="45.72729" lon="6.76825">
        <ele>1792.0706458334</ele>
        <time>2013-09-01T07:43:30.330Z</time>
      </trkpt>
      <trkpt lat="45.72734" lon="6.76815">
        <ele>1793.6626861413</ele>
        <time>2013-09-01T07:43:34.330Z</time>
      </trkpt>
      <trkpt lat="45.72739" lon="6.76804">
        <ele>1795.233168327</ele>
        <time>2013-09-01T07:43:38.270Z</time>
      </trkpt>
      <trkpt lat="45.72743" lon="6.76792">
        <ele>1797.2432179318</ele>
        <time>2013-09-01T07:43:43.270Z</time>
      </trkpt>
      <trkpt lat="45.72745" lon="6.76781">
        <ele>1798.8512576157</ele>
        <time>2013-09-01T07:43:47.270Z</time>
      </trkpt>
      <trkpt lat="45.72748" lon="6.76772">
        <ele>1800.47599872</ele>
        <time>2013-09-01T07:43:51.330Z</time>
      </trkpt>
      <trkpt lat="45.72749" lon="6.76761">
        <ele>1802.47599872</ele>
        <time>2013-09-01T07:43:56.330Z</time>
      </trkpt>
      <trkpt lat="45.72748" lon="6.76748">
        <ele>1803.73799936</ele>
        <time>2013-09-01T07:44:01.330Z</time>
      </trkpt>
      <trkpt lat="45.72751" lon="6.76739">
        <ele>1805</ele>
        <time>2013-09-01T07:44:08.270Z</time>
      </trkpt>
      <trkpt lat="45.72756" lon="6.76732">
        <ele>1805</ele>
        <time>2013-09-01T07:44:11.270Z</time>
      </trkpt>
      <trkpt lat="45.72762" lon="6.76729">
        <ele>1805</ele>
        <time>2013-09-01T07:44:14.270Z</time>
      </trkpt>
      <trkpt lat="45.72769" lon="6.76731">
        <ele>1805</ele>
        <time>2013-09-01T07:44:17.270Z</time>
      </trkpt>
      <trkpt lat="45.72774" lon="6.76738">
        <ele>1805.26899968</ele>
        <time>2013-09-01T07:44:20.330Z</time>
      </trkpt>
      <trkpt lat="45.7278" lon="6.76747">
        <ele>1805.66899968</ele>
        <time>2013-09-01T07:44:24.330Z</time>
      </trkpt>
      <trkpt lat="45.72787" lon="6.76755">
        <ele>1806.1867378894</ele>
        <time>2013-09-01T07:44:28.330Z</time>
      </trkpt>
      <trkpt lat="45.72795" lon="6.76762">
        <ele>1807.269281399</ele>
        <time>2013-09-01T07:44:32.330Z</time>
      </trkpt>
      <trkpt lat="45.72797" lon="6.76765">
        <ele>1808</ele>
        <time>2013-09-01T07:44:35.030Z</time>
      </trkpt>
    </trkseg>
  </trk>
</gpx>